<?xml version="1.0" encoding="UTF-8" standalone="no" ?>
<gpx xmlns="http://www.topografix.com/GPX/1/1" xmlns:xsi="http://www.w3.org/2001/XMLSchema-instance" xsi:schemaLocation="http://www.topografix.com/GPX/1/1 http://www.topografix.com/GPX/1/1/gpx.xsd" version="1.1" creator="VisuGPX - https://www.visugpx.com">
  <metadata>
    <name>25/01/2018 col de la Jasse et Jas du Lièvre</name>
    <desc><![CDATA[Météo finalement meilleure que prévu !]]></desc>
  </metadata>
  <trk>
    <name><![CDATA[Jasse et Jas du Lièvre]]></name>
    <trkseg>
      <trkpt lat="45.22753" lon="5.99343">
        <ele>1279.3195800781</ele>
        <time>2018-01-25T09:03:00Z</time>
      </trkpt>
      <trkpt lat="45.22736" lon="5.99375">
        <ele>1291.4132080078</ele>
        <time>2018-01-25T09:07:16Z</time>
      </trkpt>
      <trkpt lat="45.22725" lon="5.99384">
        <ele>1293.7637939453</ele>
        <time>2018-01-25T09:07:27Z</time>
      </trkpt>
      <trkpt lat="45.227" lon="5.99406">
        <ele>1301.0919189453</ele>
        <time>2018-01-25T09:07:56Z</time>
      </trkpt>
      <trkpt lat="45.2269" lon="5.99414">
        <ele>1303.9650878906</ele>
        <time>2018-01-25T09:08:07Z</time>
      </trkpt>
      <trkpt lat="45.2268" lon="5.99419">
        <ele>1305.3894042969</ele>
        <time>2018-01-25T09:08:18Z</time>
      </trkpt>
      <trkpt lat="45.22675" lon="5.99419">
        <ele>1304.9449462891</ele>
        <time>2018-01-25T09:08:23Z</time>
      </trkpt>
      <trkpt lat="45.22671" lon="5.99417">
        <ele>1303.7478027344</ele>
        <time>2018-01-25T09:08:29Z</time>
      </trkpt>
      <trkpt lat="45.22628" lon="5.99442">
        <ele>1304.7579345703</ele>
        <time>2018-01-25T09:09:11Z</time>
      </trkpt>
      <trkpt lat="45.22614" lon="5.9946">
        <ele>1305.5064697266</ele>
        <time>2018-01-25T09:09:29Z</time>
      </trkpt>
      <trkpt lat="45.22599" lon="5.99488">
        <ele>1308.7829589844</ele>
        <time>2018-01-25T09:09:52Z</time>
      </trkpt>
      <trkpt lat="45.22575" lon="5.99512">
        <ele>1309.3739013672</ele>
        <time>2018-01-25T09:10:21Z</time>
      </trkpt>
      <trkpt lat="45.22572" lon="5.99519">
        <ele>1310.6849365234</ele>
        <time>2018-01-25T09:10:27Z</time>
      </trkpt>
      <trkpt lat="45.22563" lon="5.99527">
        <ele>1311.1702880859</ele>
        <time>2018-01-25T09:10:39Z</time>
      </trkpt>
      <trkpt lat="45.22549" lon="5.99539">
        <ele>1310.3807373047</ele>
        <time>2018-01-25T09:10:57Z</time>
      </trkpt>
      <trkpt lat="45.22529" lon="5.99568">
        <ele>1309.7048339844</ele>
        <time>2018-01-25T09:11:27Z</time>
      </trkpt>
      <trkpt lat="45.2252" lon="5.99579">
        <ele>1307.7277832031</ele>
        <time>2018-01-25T09:11:40Z</time>
      </trkpt>
      <trkpt lat="45.22516" lon="5.99588">
        <ele>1307.4990234375</ele>
        <time>2018-01-25T09:11:47Z</time>
      </trkpt>
      <trkpt lat="45.22516" lon="5.99596">
        <ele>1308.8294677734</ele>
        <time>2018-01-25T09:11:52Z</time>
      </trkpt>
      <trkpt lat="45.22514" lon="5.99622">
        <ele>1312.4360351562</ele>
        <time>2018-01-25T09:12:10Z</time>
      </trkpt>
      <trkpt lat="45.22515" lon="5.99702">
        <ele>1326.6826171875</ele>
        <time>2018-01-25T09:13:06Z</time>
      </trkpt>
      <trkpt lat="45.22514" lon="5.99707">
        <ele>1327.072265625</ele>
        <time>2018-01-25T09:13:19Z</time>
      </trkpt>
      <trkpt lat="45.22506" lon="5.99741">
        <ele>1329.9475097656</ele>
        <time>2018-01-25T09:13:41Z</time>
      </trkpt>
      <trkpt lat="45.22506" lon="5.99775">
        <ele>1336.0672607422</ele>
        <time>2018-01-25T09:14:02Z</time>
      </trkpt>
      <trkpt lat="45.22501" lon="5.998">
        <ele>1338.2319335938</ele>
        <time>2018-01-25T09:14:17Z</time>
      </trkpt>
      <trkpt lat="45.22498" lon="5.99807">
        <ele>1338.1340332031</ele>
        <time>2018-01-25T09:14:23Z</time>
      </trkpt>
      <trkpt lat="45.22487" lon="5.99826">
        <ele>1335.6416015625</ele>
        <time>2018-01-25T09:14:39Z</time>
      </trkpt>
      <trkpt lat="45.22471" lon="5.99835">
        <ele>1329.125</ele>
        <time>2018-01-25T09:14:57Z</time>
      </trkpt>
      <trkpt lat="45.2246" lon="5.99843">
        <ele>1328.646484375</ele>
        <time>2018-01-25T09:15:07Z</time>
      </trkpt>
      <trkpt lat="45.2245" lon="5.99855">
        <ele>1329.1397705078</ele>
        <time>2018-01-25T09:15:18Z</time>
      </trkpt>
      <trkpt lat="45.22449" lon="5.99863">
        <ele>1330.5285644531</ele>
        <time>2018-01-25T09:15:24Z</time>
      </trkpt>
      <trkpt lat="45.2245" lon="5.99879">
        <ele>1333.8601074219</ele>
        <time>2018-01-25T09:15:35Z</time>
      </trkpt>
      <trkpt lat="45.22453" lon="5.99887">
        <ele>1335.9890136719</ele>
        <time>2018-01-25T09:15:41Z</time>
      </trkpt>
      <trkpt lat="45.22459" lon="5.99894">
        <ele>1339.3913574219</ele>
        <time>2018-01-25T09:15:53Z</time>
      </trkpt>
      <trkpt lat="45.22461" lon="5.9989">
        <ele>1339.1539306641</ele>
        <time>2018-01-25T09:15:58Z</time>
      </trkpt>
      <trkpt lat="45.22464" lon="5.99881">
        <ele>1338.1112060547</ele>
        <time>2018-01-25T09:16:03Z</time>
      </trkpt>
      <trkpt lat="45.22489" lon="5.99852">
        <ele>1341.9921875</ele>
        <time>2018-01-25T09:16:25Z</time>
      </trkpt>
      <trkpt lat="45.22522" lon="5.99794">
        <ele>1346.3618164062</ele>
        <time>2018-01-25T09:17:08Z</time>
      </trkpt>
      <trkpt lat="45.22525" lon="5.99789">
        <ele>1346.7171630859</ele>
        <time>2018-01-25T09:17:13Z</time>
      </trkpt>
      <trkpt lat="45.22531" lon="5.99772">
        <ele>1346.4176025391</ele>
        <time>2018-01-25T09:17:31Z</time>
      </trkpt>
      <trkpt lat="45.22537" lon="5.99771">
        <ele>1349.3564453125</ele>
        <time>2018-01-25T09:17:37Z</time>
      </trkpt>
      <trkpt lat="45.22541" lon="5.99779">
        <ele>1353.0111083984</ele>
        <time>2018-01-25T09:17:42Z</time>
      </trkpt>
      <trkpt lat="45.22538" lon="5.99811">
        <ele>1357.283203125</ele>
        <time>2018-01-25T09:18:04Z</time>
      </trkpt>
      <trkpt lat="45.22536" lon="5.99826">
        <ele>1358.6965332031</ele>
        <time>2018-01-25T09:18:14Z</time>
      </trkpt>
      <trkpt lat="45.22529" lon="5.99851">
        <ele>1359.6745605469</ele>
        <time>2018-01-25T09:18:40Z</time>
      </trkpt>
      <trkpt lat="45.22529" lon="5.99853">
        <ele>1360.0007324219</ele>
        <time>2018-01-25T09:18:46Z</time>
      </trkpt>
      <trkpt lat="45.2253" lon="5.99855">
        <ele>1360.6668701172</ele>
        <time>2018-01-25T09:18:51Z</time>
      </trkpt>
      <trkpt lat="45.22532" lon="5.99851">
        <ele>1360.9586181641</ele>
        <time>2018-01-25T09:19:06Z</time>
      </trkpt>
      <trkpt lat="45.2253" lon="5.99848">
        <ele>1359.7622070312</ele>
        <time>2018-01-25T09:19:19Z</time>
      </trkpt>
      <trkpt lat="45.22526" lon="5.99848">
        <ele>1358.0021972656</ele>
        <time>2018-01-25T09:19:33Z</time>
      </trkpt>
      <trkpt lat="45.22525" lon="5.99853">
        <ele>1358.5137939453</ele>
        <time>2018-01-25T09:19:46Z</time>
      </trkpt>
      <trkpt lat="45.22523" lon="5.99851">
        <ele>1357.2778320312</ele>
        <time>2018-01-25T09:19:52Z</time>
      </trkpt>
      <trkpt lat="45.22521" lon="5.99846">
        <ele>1355.4049072266</ele>
        <time>2018-01-25T09:20:08Z</time>
      </trkpt>
      <trkpt lat="45.22524" lon="5.99854">
        <ele>1358.0347900391</ele>
        <time>2018-01-25T09:20:21Z</time>
      </trkpt>
      <trkpt lat="45.22529" lon="5.99856">
        <ele>1360.5758056641</ele>
        <time>2018-01-25T09:20:31Z</time>
      </trkpt>
      <trkpt lat="45.2253" lon="5.99852">
        <ele>1360.1604003906</ele>
        <time>2018-01-25T09:20:37Z</time>
      </trkpt>
      <trkpt lat="45.22532" lon="5.99851">
        <ele>1360.8728027344</ele>
        <time>2018-01-25T09:20:48Z</time>
      </trkpt>
      <trkpt lat="45.22532" lon="5.99853">
        <ele>1361.5560302734</ele>
        <time>2018-01-25T09:20:55Z</time>
      </trkpt>
      <trkpt lat="45.22531" lon="5.99849">
        <ele>1360.4453125</ele>
        <time>2018-01-25T09:21:04Z</time>
      </trkpt>
      <trkpt lat="45.22527" lon="5.9985">
        <ele>1358.7454833984</ele>
        <time>2018-01-25T09:21:12Z</time>
      </trkpt>
      <trkpt lat="45.22524" lon="5.99858">
        <ele>1358.7214355469</ele>
        <time>2018-01-25T09:21:17Z</time>
      </trkpt>
      <trkpt lat="45.22521" lon="5.99858">
        <ele>1357.4718017578</ele>
        <time>2018-01-25T09:21:24Z</time>
      </trkpt>
      <trkpt lat="45.22518" lon="5.99879">
        <ele>1359.5213623047</ele>
        <time>2018-01-25T09:21:46Z</time>
      </trkpt>
      <trkpt lat="45.2252" lon="5.99903">
        <ele>1364.8452148438</ele>
        <time>2018-01-25T09:22:01Z</time>
      </trkpt>
      <trkpt lat="45.22516" lon="5.99906">
        <ele>1364.0830078125</ele>
        <time>2018-01-25T09:22:06Z</time>
      </trkpt>
      <trkpt lat="45.22515" lon="5.99915">
        <ele>1365.6898193359</ele>
        <time>2018-01-25T09:22:11Z</time>
      </trkpt>
      <trkpt lat="45.2252" lon="5.9992">
        <ele>1368.4237060547</ele>
        <time>2018-01-25T09:22:16Z</time>
      </trkpt>
      <trkpt lat="45.22515" lon="5.99927">
        <ele>1368.2608642578</ele>
        <time>2018-01-25T09:22:21Z</time>
      </trkpt>
      <trkpt lat="45.22513" lon="5.9994">
        <ele>1370.2252197266</ele>
        <time>2018-01-25T09:22:32Z</time>
      </trkpt>
      <trkpt lat="45.22512" lon="5.99968">
        <ele>1376.6540527344</ele>
        <time>2018-01-25T09:22:54Z</time>
      </trkpt>
      <trkpt lat="45.22511" lon="5.99978">
        <ele>1378.80078125</ele>
        <time>2018-01-25T09:23:06Z</time>
      </trkpt>
      <trkpt lat="45.22508" lon="5.99986">
        <ele>1379.8178710938</ele>
        <time>2018-01-25T09:23:17Z</time>
      </trkpt>
      <trkpt lat="45.22502" lon="5.99996">
        <ele>1381.2761230469</ele>
        <time>2018-01-25T09:23:28Z</time>
      </trkpt>
      <trkpt lat="45.22494" lon="6.00019">
        <ele>1386.6232910156</ele>
        <time>2018-01-25T09:23:44Z</time>
      </trkpt>
      <trkpt lat="45.22481" lon="6.00038">
        <ele>1388.2225341797</ele>
        <time>2018-01-25T09:24:06Z</time>
      </trkpt>
      <trkpt lat="45.22473" lon="6.00048">
        <ele>1388.2496337891</ele>
        <time>2018-01-25T09:24:18Z</time>
      </trkpt>
      <trkpt lat="45.22464" lon="6.0007">
        <ele>1389.8026123047</ele>
        <time>2018-01-25T09:24:35Z</time>
      </trkpt>
      <trkpt lat="45.22448" lon="6.00093">
        <ele>1391.2684326172</ele>
        <time>2018-01-25T09:24:59Z</time>
      </trkpt>
      <trkpt lat="45.22428" lon="6.00113">
        <ele>1392.0988769531</ele>
        <time>2018-01-25T09:25:28Z</time>
      </trkpt>
      <trkpt lat="45.22422" lon="6.00122">
        <ele>1392.9984130859</ele>
        <time>2018-01-25T09:25:38Z</time>
      </trkpt>
      <trkpt lat="45.22423" lon="6.00126">
        <ele>1393.5546875</ele>
        <time>2018-01-25T09:25:45Z</time>
      </trkpt>
      <trkpt lat="45.22422" lon="6.00126">
        <ele>1393.5477294922</ele>
        <time>2018-01-25T09:25:51Z</time>
      </trkpt>
      <trkpt lat="45.224" lon="6.00143">
        <ele>1394.8837890625</ele>
        <time>2018-01-25T09:26:13Z</time>
      </trkpt>
      <trkpt lat="45.22378" lon="6.00149">
        <ele>1395.1447753906</ele>
        <time>2018-01-25T09:26:35Z</time>
      </trkpt>
      <trkpt lat="45.22369" lon="6.00148">
        <ele>1394.9851074219</ele>
        <time>2018-01-25T09:26:46Z</time>
      </trkpt>
      <trkpt lat="45.2235" lon="6.0017">
        <ele>1398.427734375</ele>
        <time>2018-01-25T09:27:07Z</time>
      </trkpt>
      <trkpt lat="45.22341" lon="6.00181">
        <ele>1401.0112304688</ele>
        <time>2018-01-25T09:27:19Z</time>
      </trkpt>
      <trkpt lat="45.22332" lon="6.00202">
        <ele>1405.8736572266</ele>
        <time>2018-01-25T09:27:36Z</time>
      </trkpt>
      <trkpt lat="45.22323" lon="6.00206">
        <ele>1409.0441894531</ele>
        <time>2018-01-25T09:27:46Z</time>
      </trkpt>
      <trkpt lat="45.22317" lon="6.00206">
        <ele>1410.3623046875</ele>
        <time>2018-01-25T09:27:52Z</time>
      </trkpt>
      <trkpt lat="45.22311" lon="6.00207">
        <ele>1411.9866943359</ele>
        <time>2018-01-25T09:28:03Z</time>
      </trkpt>
      <trkpt lat="45.22305" lon="6.00224">
        <ele>1415.2015380859</ele>
        <time>2018-01-25T09:28:22Z</time>
      </trkpt>
      <trkpt lat="45.22305" lon="6.00225">
        <ele>1415.3089599609</ele>
        <time>2018-01-25T09:28:31Z</time>
      </trkpt>
      <trkpt lat="45.22301" lon="6.00238">
        <ele>1416.5756835938</ele>
        <time>2018-01-25T09:28:47Z</time>
      </trkpt>
      <trkpt lat="45.2231" lon="6.00254">
        <ele>1417.4045410156</ele>
        <time>2018-01-25T09:29:11Z</time>
      </trkpt>
      <trkpt lat="45.22316" lon="6.00279">
        <ele>1420.8299560547</ele>
        <time>2018-01-25T09:29:35Z</time>
      </trkpt>
      <trkpt lat="45.22316" lon="6.00338">
        <ele>1430.2048339844</ele>
        <time>2018-01-25T09:30:29Z</time>
      </trkpt>
      <trkpt lat="45.22316" lon="6.00342">
        <ele>1430.8385009766</ele>
        <time>2018-01-25T09:30:44Z</time>
      </trkpt>
      <trkpt lat="45.22306" lon="6.00362">
        <ele>1434.1967773438</ele>
        <time>2018-01-25T09:31:08Z</time>
      </trkpt>
      <trkpt lat="45.22308" lon="6.00381">
        <ele>1437.4731445312</ele>
        <time>2018-01-25T09:31:25Z</time>
      </trkpt>
      <trkpt lat="45.22307" lon="6.00387">
        <ele>1438.6516113281</ele>
        <time>2018-01-25T09:31:31Z</time>
      </trkpt>
      <trkpt lat="45.22305" lon="6.00404">
        <ele>1442.3934326172</ele>
        <time>2018-01-25T09:31:49Z</time>
      </trkpt>
      <trkpt lat="45.22309" lon="6.00414">
        <ele>1444.2663574219</ele>
        <time>2018-01-25T09:32:01Z</time>
      </trkpt>
      <trkpt lat="45.22305" lon="6.00424">
        <ele>1446.8842773438</ele>
        <time>2018-01-25T09:32:13Z</time>
      </trkpt>
      <trkpt lat="45.223" lon="6.00434">
        <ele>1451.3818359375</ele>
        <time>2018-01-25T09:32:25Z</time>
      </trkpt>
      <trkpt lat="45.22292" lon="6.00435">
        <ele>1454.1575927734</ele>
        <time>2018-01-25T09:32:36Z</time>
      </trkpt>
      <trkpt lat="45.22287" lon="6.0043">
        <ele>1454.4185791016</ele>
        <time>2018-01-25T09:33:06Z</time>
      </trkpt>
      <trkpt lat="45.22286" lon="6.00431">
        <ele>1455.0502929688</ele>
        <time>2018-01-25T09:33:13Z</time>
      </trkpt>
      <trkpt lat="45.22278" lon="6.00436">
        <ele>1458.7358398438</ele>
        <time>2018-01-25T09:33:24Z</time>
      </trkpt>
      <trkpt lat="45.22274" lon="6.00437">
        <ele>1460.1037597656</ele>
        <time>2018-01-25T09:33:29Z</time>
      </trkpt>
      <trkpt lat="45.22265" lon="6.00438">
        <ele>1462.4907226562</ele>
        <time>2018-01-25T09:33:41Z</time>
      </trkpt>
      <trkpt lat="45.22237" lon="6.00436">
        <ele>1471.52734375</ele>
        <time>2018-01-25T09:34:22Z</time>
      </trkpt>
      <trkpt lat="45.22236" lon="6.0044">
        <ele>1472.6323242188</ele>
        <time>2018-01-25T09:34:27Z</time>
      </trkpt>
      <trkpt lat="45.2224" lon="6.00463">
        <ele>1475.5093994141</ele>
        <time>2018-01-25T09:34:51Z</time>
      </trkpt>
      <trkpt lat="45.22239" lon="6.00467">
        <ele>1476.5339355469</ele>
        <time>2018-01-25T09:35:07Z</time>
      </trkpt>
      <trkpt lat="45.22236" lon="6.00483">
        <ele>1481.0592041016</ele>
        <time>2018-01-25T09:35:25Z</time>
      </trkpt>
      <trkpt lat="45.22239" lon="6.00494">
        <ele>1481.3630371094</ele>
        <time>2018-01-25T09:35:38Z</time>
      </trkpt>
      <trkpt lat="45.22241" lon="6.00504">
        <ele>1482.1098632812</ele>
        <time>2018-01-25T09:35:49Z</time>
      </trkpt>
      <trkpt lat="45.22237" lon="6.00507">
        <ele>1484.6676025391</ele>
        <time>2018-01-25T09:35:55Z</time>
      </trkpt>
      <trkpt lat="45.22221" lon="6.0051">
        <ele>1493.2525634766</ele>
        <time>2018-01-25T09:36:17Z</time>
      </trkpt>
      <trkpt lat="45.22201" lon="6.00493">
        <ele>1502.7944335938</ele>
        <time>2018-01-25T09:36:45Z</time>
      </trkpt>
      <trkpt lat="45.22197" lon="6.00492">
        <ele>1505.2120361328</ele>
        <time>2018-01-25T09:36:51Z</time>
      </trkpt>
      <trkpt lat="45.22196" lon="6.00497">
        <ele>1506.7520751953</ele>
        <time>2018-01-25T09:36:57Z</time>
      </trkpt>
      <trkpt lat="45.22201" lon="6.0052">
        <ele>1507.1247558594</ele>
        <time>2018-01-25T09:37:15Z</time>
      </trkpt>
      <trkpt lat="45.22201" lon="6.00544">
        <ele>1510.4731445312</ele>
        <time>2018-01-25T09:37:39Z</time>
      </trkpt>
      <trkpt lat="45.222" lon="6.00594">
        <ele>1519.4171142578</ele>
        <time>2018-01-25T09:38:20Z</time>
      </trkpt>
      <trkpt lat="45.22202" lon="6.00606">
        <ele>1520.6134033203</ele>
        <time>2018-01-25T09:38:32Z</time>
      </trkpt>
      <trkpt lat="45.22197" lon="6.00615">
        <ele>1525.1114501953</ele>
        <time>2018-01-25T09:38:43Z</time>
      </trkpt>
      <trkpt lat="45.22198" lon="6.0062">
        <ele>1525.8240966797</ele>
        <time>2018-01-25T09:38:48Z</time>
      </trkpt>
      <trkpt lat="45.22195" lon="6.00642">
        <ele>1533.5732421875</ele>
        <time>2018-01-25T09:39:06Z</time>
      </trkpt>
      <trkpt lat="45.22201" lon="6.00654">
        <ele>1531.8739013672</ele>
        <time>2018-01-25T09:39:17Z</time>
      </trkpt>
      <trkpt lat="45.22196" lon="6.00713">
        <ele>1545.8701171875</ele>
        <time>2018-01-25T09:40:15Z</time>
      </trkpt>
      <trkpt lat="45.22196" lon="6.00718">
        <ele>1546.8349609375</ele>
        <time>2018-01-25T09:40:21Z</time>
      </trkpt>
      <trkpt lat="45.22199" lon="6.00739">
        <ele>1547.9165039062</ele>
        <time>2018-01-25T09:40:44Z</time>
      </trkpt>
      <trkpt lat="45.222" lon="6.00765">
        <ele>1551.5435791016</ele>
        <time>2018-01-25T09:41:08Z</time>
      </trkpt>
      <trkpt lat="45.22204" lon="6.00783">
        <ele>1552.8103027344</ele>
        <time>2018-01-25T09:41:31Z</time>
      </trkpt>
      <trkpt lat="45.22205" lon="6.00788">
        <ele>1553.2459716797</ele>
        <time>2018-01-25T09:41:37Z</time>
      </trkpt>
      <trkpt lat="45.22216" lon="6.00811">
        <ele>1553.9069824219</ele>
        <time>2018-01-25T09:42:06Z</time>
      </trkpt>
      <trkpt lat="45.22219" lon="6.00816">
        <ele>1553.7220458984</ele>
        <time>2018-01-25T09:42:12Z</time>
      </trkpt>
      <trkpt lat="45.22232" lon="6.00836">
        <ele>1555.0827636719</ele>
        <time>2018-01-25T09:42:36Z</time>
      </trkpt>
      <trkpt lat="45.22248" lon="6.00881">
        <ele>1558.8182373047</ele>
        <time>2018-01-25T09:43:23Z</time>
      </trkpt>
      <trkpt lat="45.22249" lon="6.00893">
        <ele>1560.7749023438</ele>
        <time>2018-01-25T09:43:35Z</time>
      </trkpt>
      <trkpt lat="45.22247" lon="6.00903">
        <ele>1564.3851318359</ele>
        <time>2018-01-25T09:43:47Z</time>
      </trkpt>
      <trkpt lat="45.2225" lon="6.0091">
        <ele>1564.3748779297</ele>
        <time>2018-01-25T09:44:00Z</time>
      </trkpt>
      <trkpt lat="45.22247" lon="6.00923">
        <ele>1569.3522949219</ele>
        <time>2018-01-25T09:44:16Z</time>
      </trkpt>
      <trkpt lat="45.22242" lon="6.00928">
        <ele>1573.8276367188</ele>
        <time>2018-01-25T09:44:28Z</time>
      </trkpt>
      <trkpt lat="45.22232" lon="6.00929">
        <ele>1579.8416748047</ele>
        <time>2018-01-25T09:44:39Z</time>
      </trkpt>
      <trkpt lat="45.22231" lon="6.00933">
        <ele>1581.3182373047</ele>
        <time>2018-01-25T09:44:44Z</time>
      </trkpt>
      <trkpt lat="45.22234" lon="6.00944">
        <ele>1581.7882080078</ele>
        <time>2018-01-25T09:44:56Z</time>
      </trkpt>
      <trkpt lat="45.22234" lon="6.00971">
        <ele>1586.6785888672</ele>
        <time>2018-01-25T09:45:25Z</time>
      </trkpt>
      <trkpt lat="45.22231" lon="6.00989">
        <ele>1591.1373291016</ele>
        <time>2018-01-25T09:45:43Z</time>
      </trkpt>
      <trkpt lat="45.22232" lon="6.00996">
        <ele>1591.8101806641</ele>
        <time>2018-01-25T09:45:49Z</time>
      </trkpt>
      <trkpt lat="45.22241" lon="6.01023">
        <ele>1593.1107177734</ele>
        <time>2018-01-25T09:46:13Z</time>
      </trkpt>
      <trkpt lat="45.22243" lon="6.01029">
        <ele>1593.4096679688</ele>
        <time>2018-01-25T09:46:30Z</time>
      </trkpt>
      <trkpt lat="45.22238" lon="6.01048">
        <ele>1597.9914550781</ele>
        <time>2018-01-25T09:46:55Z</time>
      </trkpt>
      <trkpt lat="45.22236" lon="6.01083">
        <ele>1602.9727783203</ele>
        <time>2018-01-25T09:47:25Z</time>
      </trkpt>
      <trkpt lat="45.22241" lon="6.01104">
        <ele>1605.072265625</ele>
        <time>2018-01-25T09:47:49Z</time>
      </trkpt>
      <trkpt lat="45.22239" lon="6.01124">
        <ele>1608.2491455078</ele>
        <time>2018-01-25T09:48:07Z</time>
      </trkpt>
      <trkpt lat="45.22249" lon="6.01156">
        <ele>1611.9620361328</ele>
        <time>2018-01-25T09:48:43Z</time>
      </trkpt>
      <trkpt lat="45.22248" lon="6.01163">
        <ele>1612.7121582031</ele>
        <time>2018-01-25T09:48:49Z</time>
      </trkpt>
      <trkpt lat="45.2226" lon="6.0119">
        <ele>1616.7152099609</ele>
        <time>2018-01-25T09:49:22Z</time>
      </trkpt>
      <trkpt lat="45.22264" lon="6.01203">
        <ele>1619.4473876953</ele>
        <time>2018-01-25T09:49:39Z</time>
      </trkpt>
      <trkpt lat="45.22256" lon="6.0122">
        <ele>1622.1640625</ele>
        <time>2018-01-25T09:49:58Z</time>
      </trkpt>
      <trkpt lat="45.22243" lon="6.01231">
        <ele>1624.9360351562</ele>
        <time>2018-01-25T09:50:16Z</time>
      </trkpt>
      <trkpt lat="45.22242" lon="6.01243">
        <ele>1628.4868164062</ele>
        <time>2018-01-25T09:50:26Z</time>
      </trkpt>
      <trkpt lat="45.22236" lon="6.01275">
        <ele>1636.4038085938</ele>
        <time>2018-01-25T09:51:09Z</time>
      </trkpt>
      <trkpt lat="45.22233" lon="6.0129">
        <ele>1639.7388916016</ele>
        <time>2018-01-25T09:51:25Z</time>
      </trkpt>
      <trkpt lat="45.22235" lon="6.01299">
        <ele>1641.9830322266</ele>
        <time>2018-01-25T09:51:37Z</time>
      </trkpt>
      <trkpt lat="45.22246" lon="6.01307">
        <ele>1644.2340087891</ele>
        <time>2018-01-25T09:51:56Z</time>
      </trkpt>
      <trkpt lat="45.2225" lon="6.01306">
        <ele>1644.1243896484</ele>
        <time>2018-01-25T09:52:04Z</time>
      </trkpt>
      <trkpt lat="45.22275" lon="6.01302">
        <ele>1645.0784912109</ele>
        <time>2018-01-25T09:52:41Z</time>
      </trkpt>
      <trkpt lat="45.22285" lon="6.01305">
        <ele>1647.6243896484</ele>
        <time>2018-01-25T09:52:52Z</time>
      </trkpt>
      <trkpt lat="45.22287" lon="6.01311">
        <ele>1649.2618408203</ele>
        <time>2018-01-25T09:52:59Z</time>
      </trkpt>
      <trkpt lat="45.22279" lon="6.01326">
        <ele>1650.7263183594</ele>
        <time>2018-01-25T09:53:15Z</time>
      </trkpt>
      <trkpt lat="45.22277" lon="6.01362">
        <ele>1660.2177734375</ele>
        <time>2018-01-25T09:53:48Z</time>
      </trkpt>
      <trkpt lat="45.22275" lon="6.01363">
        <ele>1660.3372802734</ele>
        <time>2018-01-25T09:53:54Z</time>
      </trkpt>
      <trkpt lat="45.22261" lon="6.0137">
        <ele>1661.6488037109</ele>
        <time>2018-01-25T09:54:13Z</time>
      </trkpt>
      <trkpt lat="45.22244" lon="6.01382">
        <ele>1661.9090576172</ele>
        <time>2018-01-25T09:54:36Z</time>
      </trkpt>
      <trkpt lat="45.22236" lon="6.01392">
        <ele>1661.8747558594</ele>
        <time>2018-01-25T09:54:47Z</time>
      </trkpt>
      <trkpt lat="45.22231" lon="6.01406">
        <ele>1663.0557861328</ele>
        <time>2018-01-25T09:54:59Z</time>
      </trkpt>
      <trkpt lat="45.22231" lon="6.01439">
        <ele>1666.5104980469</ele>
        <time>2018-01-25T09:55:29Z</time>
      </trkpt>
      <trkpt lat="45.22232" lon="6.01446">
        <ele>1667.2224121094</ele>
        <time>2018-01-25T09:55:37Z</time>
      </trkpt>
      <trkpt lat="45.2224" lon="6.01481">
        <ele>1667.5949707031</ele>
        <time>2018-01-25T09:56:03Z</time>
      </trkpt>
      <trkpt lat="45.22245" lon="6.01497">
        <ele>1668.0327148438</ele>
        <time>2018-01-25T09:56:21Z</time>
      </trkpt>
      <trkpt lat="45.22243" lon="6.01529">
        <ele>1663.8892822266</ele>
        <time>2018-01-25T09:56:57Z</time>
      </trkpt>
      <trkpt lat="45.22247" lon="6.01544">
        <ele>1664.5590820312</ele>
        <time>2018-01-25T09:57:07Z</time>
      </trkpt>
      <trkpt lat="45.2226" lon="6.01599">
        <ele>1667.0697021484</ele>
        <time>2018-01-25T09:57:46Z</time>
      </trkpt>
      <trkpt lat="45.22261" lon="6.01631">
        <ele>1665.5266113281</ele>
        <time>2018-01-25T09:58:03Z</time>
      </trkpt>
      <trkpt lat="45.22263" lon="6.01667">
        <ele>1665.3391113281</ele>
        <time>2018-01-25T09:58:24Z</time>
      </trkpt>
      <trkpt lat="45.2226" lon="6.01672">
        <ele>1664.2303466797</ele>
        <time>2018-01-25T09:58:49Z</time>
      </trkpt>
      <trkpt lat="45.22256" lon="6.01677">
        <ele>1662.0910644531</ele>
        <time>2018-01-25T09:59:04Z</time>
      </trkpt>
      <trkpt lat="45.22256" lon="6.01685">
        <ele>1662.4333496094</ele>
        <time>2018-01-25T09:59:09Z</time>
      </trkpt>
      <trkpt lat="45.22266" lon="6.01699">
        <ele>1667.2669677734</ele>
        <time>2018-01-25T09:59:20Z</time>
      </trkpt>
      <trkpt lat="45.22267" lon="6.01707">
        <ele>1668.7219238281</ele>
        <time>2018-01-25T09:59:25Z</time>
      </trkpt>
      <trkpt lat="45.22262" lon="6.01761">
        <ele>1673.6170654297</ele>
        <time>2018-01-25T10:00:02Z</time>
      </trkpt>
      <trkpt lat="45.22268" lon="6.01786">
        <ele>1677.6988525391</ele>
        <time>2018-01-25T10:00:32Z</time>
      </trkpt>
      <trkpt lat="45.22268" lon="6.01795">
        <ele>1678.6340332031</ele>
        <time>2018-01-25T10:00:43Z</time>
      </trkpt>
      <trkpt lat="45.22268" lon="6.01812">
        <ele>1680.1877441406</ele>
        <time>2018-01-25T10:01:01Z</time>
      </trkpt>
      <trkpt lat="45.22267" lon="6.01817">
        <ele>1680.62890625</ele>
        <time>2018-01-25T10:01:07Z</time>
      </trkpt>
      <trkpt lat="45.2226" lon="6.01825">
        <ele>1680.4194335938</ele>
        <time>2018-01-25T10:01:26Z</time>
      </trkpt>
      <trkpt lat="45.22259" lon="6.01829">
        <ele>1680.8795166016</ele>
        <time>2018-01-25T10:01:32Z</time>
      </trkpt>
      <trkpt lat="45.22259" lon="6.01831">
        <ele>1681.0443115234</ele>
        <time>2018-01-25T10:01:50Z</time>
      </trkpt>
      <trkpt lat="45.2226" lon="6.01853">
        <ele>1683.5849609375</ele>
        <time>2018-01-25T10:02:13Z</time>
      </trkpt>
      <trkpt lat="45.22253" lon="6.01883">
        <ele>1685.802734375</ele>
        <time>2018-01-25T10:02:33Z</time>
      </trkpt>
      <trkpt lat="45.22252" lon="6.01898">
        <ele>1687.5120849609</ele>
        <time>2018-01-25T10:02:45Z</time>
      </trkpt>
      <trkpt lat="45.22252" lon="6.01974">
        <ele>1695.5030517578</ele>
        <time>2018-01-25T10:03:43Z</time>
      </trkpt>
      <trkpt lat="45.22249" lon="6.01997">
        <ele>1698.3653564453</ele>
        <time>2018-01-25T10:04:00Z</time>
      </trkpt>
      <trkpt lat="45.22253" lon="6.02007">
        <ele>1700.3370361328</ele>
        <time>2018-01-25T10:04:16Z</time>
      </trkpt>
      <trkpt lat="45.2225" lon="6.02027">
        <ele>1702.953125</ele>
        <time>2018-01-25T10:04:34Z</time>
      </trkpt>
      <trkpt lat="45.22252" lon="6.02068">
        <ele>1709.9681396484</ele>
        <time>2018-01-25T10:05:16Z</time>
      </trkpt>
      <trkpt lat="45.22283" lon="6.02126">
        <ele>1723.2735595703</ele>
        <time>2018-01-25T10:06:29Z</time>
      </trkpt>
      <trkpt lat="45.22285" lon="6.0213">
        <ele>1724.4149169922</ele>
        <time>2018-01-25T10:06:35Z</time>
      </trkpt>
      <trkpt lat="45.22294" lon="6.02141">
        <ele>1727.7370605469</ele>
        <time>2018-01-25T10:06:53Z</time>
      </trkpt>
      <trkpt lat="45.22297" lon="6.02141">
        <ele>1728.0888671875</ele>
        <time>2018-01-25T10:07:13Z</time>
      </trkpt>
      <trkpt lat="45.22293" lon="6.02137">
        <ele>1726.8229980469</ele>
        <time>2018-01-25T10:08:01Z</time>
      </trkpt>
      <trkpt lat="45.22295" lon="6.02136">
        <ele>1726.8016357422</ele>
        <time>2018-01-25T10:08:16Z</time>
      </trkpt>
      <trkpt lat="45.22298" lon="6.02142">
        <ele>1728.6174316406</ele>
        <time>2018-01-25T10:08:22Z</time>
      </trkpt>
      <trkpt lat="45.22302" lon="6.02155">
        <ele>1731.9155273438</ele>
        <time>2018-01-25T10:08:33Z</time>
      </trkpt>
      <trkpt lat="45.22306" lon="6.02172">
        <ele>1736.1208496094</ele>
        <time>2018-01-25T10:08:51Z</time>
      </trkpt>
      <trkpt lat="45.22309" lon="6.02177">
        <ele>1737.2056884766</ele>
        <time>2018-01-25T10:08:57Z</time>
      </trkpt>
      <trkpt lat="45.22333" lon="6.02222">
        <ele>1747.0356445312</ele>
        <time>2018-01-25T10:09:50Z</time>
      </trkpt>
      <trkpt lat="45.22343" lon="6.02239">
        <ele>1751.494140625</ele>
        <time>2018-01-25T10:10:14Z</time>
      </trkpt>
      <trkpt lat="45.22344" lon="6.02242">
        <ele>1752.4152832031</ele>
        <time>2018-01-25T10:10:19Z</time>
      </trkpt>
      <trkpt lat="45.22348" lon="6.02253">
        <ele>1755.1199951172</ele>
        <time>2018-01-25T10:10:30Z</time>
      </trkpt>
      <trkpt lat="45.2235" lon="6.02257">
        <ele>1755.7485351562</ele>
        <time>2018-01-25T10:10:35Z</time>
      </trkpt>
      <trkpt lat="45.22354" lon="6.02262">
        <ele>1756.8376464844</ele>
        <time>2018-01-25T10:10:50Z</time>
      </trkpt>
      <trkpt lat="45.22358" lon="6.02265">
        <ele>1757.2938232422</ele>
        <time>2018-01-25T10:10:56Z</time>
      </trkpt>
      <trkpt lat="45.22358" lon="6.02281">
        <ele>1760.2854003906</ele>
        <time>2018-01-25T10:11:18Z</time>
      </trkpt>
      <trkpt lat="45.22362" lon="6.02288">
        <ele>1761.1989746094</ele>
        <time>2018-01-25T10:11:30Z</time>
      </trkpt>
      <trkpt lat="45.22387" lon="6.02308">
        <ele>1766.2526855469</ele>
        <time>2018-01-25T10:12:12Z</time>
      </trkpt>
      <trkpt lat="45.22389" lon="6.02313">
        <ele>1767.3321533203</ele>
        <time>2018-01-25T10:12:18Z</time>
      </trkpt>
      <trkpt lat="45.22396" lon="6.02351">
        <ele>1775.5854492188</ele>
        <time>2018-01-25T10:13:09Z</time>
      </trkpt>
      <trkpt lat="45.22397" lon="6.02355">
        <ele>1776.4141845703</ele>
        <time>2018-01-25T10:13:21Z</time>
      </trkpt>
      <trkpt lat="45.224" lon="6.02354">
        <ele>1776.8736572266</ele>
        <time>2018-01-25T10:13:32Z</time>
      </trkpt>
      <trkpt lat="45.22398" lon="6.02357">
        <ele>1776.9672851562</ele>
        <time>2018-01-25T10:14:19Z</time>
      </trkpt>
      <trkpt lat="45.224" lon="6.02364">
        <ele>1778.3056640625</ele>
        <time>2018-01-25T10:14:31Z</time>
      </trkpt>
      <trkpt lat="45.22416" lon="6.02379">
        <ele>1782.7487792969</ele>
        <time>2018-01-25T10:15:07Z</time>
      </trkpt>
      <trkpt lat="45.22429" lon="6.02389">
        <ele>1788.3946533203</ele>
        <time>2018-01-25T10:15:34Z</time>
      </trkpt>
      <trkpt lat="45.22432" lon="6.02402">
        <ele>1790.6838378906</ele>
        <time>2018-01-25T10:15:51Z</time>
      </trkpt>
      <trkpt lat="45.2244" lon="6.02416">
        <ele>1794.5804443359</ele>
        <time>2018-01-25T10:16:18Z</time>
      </trkpt>
      <trkpt lat="45.22449" lon="6.02418">
        <ele>1797.9370117188</ele>
        <time>2018-01-25T10:16:37Z</time>
      </trkpt>
      <trkpt lat="45.22453" lon="6.02433">
        <ele>1800.572265625</ele>
        <time>2018-01-25T10:16:56Z</time>
      </trkpt>
      <trkpt lat="45.22451" lon="6.0245">
        <ele>1801.2484130859</ele>
        <time>2018-01-25T10:17:14Z</time>
      </trkpt>
      <trkpt lat="45.22452" lon="6.0246">
        <ele>1802.6262207031</ele>
        <time>2018-01-25T10:17:28Z</time>
      </trkpt>
      <trkpt lat="45.22458" lon="6.02473">
        <ele>1806.5262451172</ele>
        <time>2018-01-25T10:17:46Z</time>
      </trkpt>
      <trkpt lat="45.22465" lon="6.02477">
        <ele>1810.0047607422</ele>
        <time>2018-01-25T10:17:59Z</time>
      </trkpt>
      <trkpt lat="45.22464" lon="6.02479">
        <ele>1809.9743652344</ele>
        <time>2018-01-25T10:18:15Z</time>
      </trkpt>
      <trkpt lat="45.22466" lon="6.02478">
        <ele>1810.6799316406</ele>
        <time>2018-01-25T10:18:27Z</time>
      </trkpt>
      <trkpt lat="45.22477" lon="6.02476">
        <ele>1814.9862060547</ele>
        <time>2018-01-25T10:18:43Z</time>
      </trkpt>
      <trkpt lat="45.22495" lon="6.0247">
        <ele>1820.0833740234</ele>
        <time>2018-01-25T10:19:11Z</time>
      </trkpt>
      <trkpt lat="45.22532" lon="6.02472">
        <ele>1829.1951904297</ele>
        <time>2018-01-25T10:19:58Z</time>
      </trkpt>
      <trkpt lat="45.22536" lon="6.02472">
        <ele>1830.2821044922</ele>
        <time>2018-01-25T10:20:04Z</time>
      </trkpt>
      <trkpt lat="45.22547" lon="6.02477">
        <ele>1833.8197021484</ele>
        <time>2018-01-25T10:20:27Z</time>
      </trkpt>
      <trkpt lat="45.2257" lon="6.02488">
        <ele>1840.0524902344</ele>
        <time>2018-01-25T10:21:02Z</time>
      </trkpt>
      <trkpt lat="45.22579" lon="6.02489">
        <ele>1842.3837890625</ele>
        <time>2018-01-25T10:21:20Z</time>
      </trkpt>
      <trkpt lat="45.22607" lon="6.02498">
        <ele>1848.1702880859</ele>
        <time>2018-01-25T10:22:01Z</time>
      </trkpt>
      <trkpt lat="45.22614" lon="6.02501">
        <ele>1850.1624755859</ele>
        <time>2018-01-25T10:22:14Z</time>
      </trkpt>
      <trkpt lat="45.22631" lon="6.02503">
        <ele>1855.6455078125</ele>
        <time>2018-01-25T10:22:43Z</time>
      </trkpt>
      <trkpt lat="45.22645" lon="6.02501">
        <ele>1860.1641845703</ele>
        <time>2018-01-25T10:23:06Z</time>
      </trkpt>
      <trkpt lat="45.22644" lon="6.02502">
        <ele>1859.7780761719</ele>
        <time>2018-01-25T10:23:24Z</time>
      </trkpt>
      <trkpt lat="45.22641" lon="6.0251">
        <ele>1858.9466552734</ele>
        <time>2018-01-25T10:24:18Z</time>
      </trkpt>
      <trkpt lat="45.22639" lon="6.02507">
        <ele>1858.3092041016</ele>
        <time>2018-01-25T10:24:30Z</time>
      </trkpt>
      <trkpt lat="45.22647" lon="6.02506">
        <ele>1860.9797363281</ele>
        <time>2018-01-25T10:25:16Z</time>
      </trkpt>
      <trkpt lat="45.22648" lon="6.02506">
        <ele>1861.3696289062</ele>
        <time>2018-01-25T10:25:48Z</time>
      </trkpt>
      <trkpt lat="45.22654" lon="6.02502">
        <ele>1863.3260498047</ele>
        <time>2018-01-25T10:25:58Z</time>
      </trkpt>
      <trkpt lat="45.22659" lon="6.02497">
        <ele>1865.6033935547</ele>
        <time>2018-01-25T10:26:11Z</time>
      </trkpt>
      <trkpt lat="45.22677" lon="6.02504">
        <ele>1871.4228515625</ele>
        <time>2018-01-25T10:26:43Z</time>
      </trkpt>
      <trkpt lat="45.22697" lon="6.02514">
        <ele>1877.8063964844</ele>
        <time>2018-01-25T10:27:18Z</time>
      </trkpt>
      <trkpt lat="45.22724" lon="6.02515">
        <ele>1887.6541748047</ele>
        <time>2018-01-25T10:28:01Z</time>
      </trkpt>
      <trkpt lat="45.22732" lon="6.02519">
        <ele>1890.4565429688</ele>
        <time>2018-01-25T10:28:14Z</time>
      </trkpt>
      <trkpt lat="45.22739" lon="6.02523">
        <ele>1892.5158691406</ele>
        <time>2018-01-25T10:28:25Z</time>
      </trkpt>
      <trkpt lat="45.22756" lon="6.02533">
        <ele>1897.0922851562</ele>
        <time>2018-01-25T10:28:53Z</time>
      </trkpt>
      <trkpt lat="45.2277" lon="6.02544">
        <ele>1899.5270996094</ele>
        <time>2018-01-25T10:29:16Z</time>
      </trkpt>
      <trkpt lat="45.22776" lon="6.02552">
        <ele>1900.0660400391</ele>
        <time>2018-01-25T10:29:27Z</time>
      </trkpt>
      <trkpt lat="45.22799" lon="6.02577">
        <ele>1907.4471435547</ele>
        <time>2018-01-25T10:30:07Z</time>
      </trkpt>
      <trkpt lat="45.22825" lon="6.0261">
        <ele>1918.630859375</ele>
        <time>2018-01-25T10:31:06Z</time>
      </trkpt>
      <trkpt lat="45.22833" lon="6.02618">
        <ele>1921.3526611328</ele>
        <time>2018-01-25T10:31:23Z</time>
      </trkpt>
      <trkpt lat="45.22849" lon="6.02633">
        <ele>1926.6196289062</ele>
        <time>2018-01-25T10:31:59Z</time>
      </trkpt>
      <trkpt lat="45.22854" lon="6.02634">
        <ele>1928.4427490234</ele>
        <time>2018-01-25T10:32:09Z</time>
      </trkpt>
      <trkpt lat="45.22857" lon="6.02635">
        <ele>1929.4624023438</ele>
        <time>2018-01-25T10:32:25Z</time>
      </trkpt>
      <trkpt lat="45.22859" lon="6.02635">
        <ele>1930.4992675781</ele>
        <time>2018-01-25T10:32:32Z</time>
      </trkpt>
      <trkpt lat="45.22865" lon="6.02639">
        <ele>1931.9989013672</ele>
        <time>2018-01-25T10:32:42Z</time>
      </trkpt>
      <trkpt lat="45.2287" lon="6.0265">
        <ele>1934.3677978516</ele>
        <time>2018-01-25T10:33:04Z</time>
      </trkpt>
      <trkpt lat="45.22878" lon="6.02647">
        <ele>1936.1784667969</ele>
        <time>2018-01-25T10:33:20Z</time>
      </trkpt>
      <trkpt lat="45.22887" lon="6.0265">
        <ele>1938.6423339844</ele>
        <time>2018-01-25T10:33:38Z</time>
      </trkpt>
      <trkpt lat="45.22892" lon="6.02651">
        <ele>1940.1529541016</ele>
        <time>2018-01-25T10:34:29Z</time>
      </trkpt>
      <trkpt lat="45.22896" lon="6.02645">
        <ele>1941.8729248047</ele>
        <time>2018-01-25T10:34:40Z</time>
      </trkpt>
      <trkpt lat="45.229" lon="6.02637">
        <ele>1943.1634521484</ele>
        <time>2018-01-25T10:35:10Z</time>
      </trkpt>
      <trkpt lat="45.22904" lon="6.0265">
        <ele>1945.4130859375</ele>
        <time>2018-01-25T10:35:22Z</time>
      </trkpt>
      <trkpt lat="45.22905" lon="6.02656">
        <ele>1946.2332763672</ele>
        <time>2018-01-25T10:35:28Z</time>
      </trkpt>
      <trkpt lat="45.22906" lon="6.02682">
        <ele>1950.2341308594</ele>
        <time>2018-01-25T10:35:57Z</time>
      </trkpt>
      <trkpt lat="45.22907" lon="6.02681">
        <ele>1950.6256103516</ele>
        <time>2018-01-25T10:36:03Z</time>
      </trkpt>
      <trkpt lat="45.22918" lon="6.02666">
        <ele>1953.3059082031</ele>
        <time>2018-01-25T10:36:24Z</time>
      </trkpt>
      <trkpt lat="45.22922" lon="6.02653">
        <ele>1952.6741943359</ele>
        <time>2018-01-25T10:36:41Z</time>
      </trkpt>
      <trkpt lat="45.22934" lon="6.02667">
        <ele>1956.8289794922</ele>
        <time>2018-01-25T10:37:07Z</time>
      </trkpt>
      <trkpt lat="45.22937" lon="6.02663">
        <ele>1957.2625732422</ele>
        <time>2018-01-25T10:37:28Z</time>
      </trkpt>
      <trkpt lat="45.22942" lon="6.02656">
        <ele>1958.5786132812</ele>
        <time>2018-01-25T10:37:40Z</time>
      </trkpt>
      <trkpt lat="45.22945" lon="6.02658">
        <ele>1959.9697265625</ele>
        <time>2018-01-25T10:37:47Z</time>
      </trkpt>
      <trkpt lat="45.22952" lon="6.02672">
        <ele>1965.04296875</ele>
        <time>2018-01-25T10:38:06Z</time>
      </trkpt>
      <trkpt lat="45.22958" lon="6.02691">
        <ele>1971.5983886719</ele>
        <time>2018-01-25T10:38:33Z</time>
      </trkpt>
      <trkpt lat="45.22958" lon="6.02696">
        <ele>1972.6956787109</ele>
        <time>2018-01-25T10:38:39Z</time>
      </trkpt>
      <trkpt lat="45.22957" lon="6.02709">
        <ele>1978.3638916016</ele>
        <time>2018-01-25T10:38:56Z</time>
      </trkpt>
      <trkpt lat="45.22958" lon="6.0271">
        <ele>1979.4616699219</ele>
        <time>2018-01-25T10:39:07Z</time>
      </trkpt>
      <trkpt lat="45.22974" lon="6.02693">
        <ele>1979.1181640625</ele>
        <time>2018-01-25T10:39:43Z</time>
      </trkpt>
      <trkpt lat="45.22977" lon="6.02691">
        <ele>1980.7469482422</ele>
        <time>2018-01-25T10:39:48Z</time>
      </trkpt>
      <trkpt lat="45.22982" lon="6.02684">
        <ele>1983.6256103516</ele>
        <time>2018-01-25T10:39:59Z</time>
      </trkpt>
      <trkpt lat="45.22988" lon="6.02673">
        <ele>1987.1044921875</ele>
        <time>2018-01-25T10:40:17Z</time>
      </trkpt>
      <trkpt lat="45.22994" lon="6.02684">
        <ele>1991.3325195312</ele>
        <time>2018-01-25T10:40:35Z</time>
      </trkpt>
      <trkpt lat="45.22995" lon="6.02689">
        <ele>1992.6590576172</ele>
        <time>2018-01-25T10:40:45Z</time>
      </trkpt>
      <trkpt lat="45.22997" lon="6.0269">
        <ele>1993.6569824219</ele>
        <time>2018-01-25T10:40:57Z</time>
      </trkpt>
      <trkpt lat="45.23009" lon="6.02677">
        <ele>1999.4741210938</ele>
        <time>2018-01-25T10:41:29Z</time>
      </trkpt>
      <trkpt lat="45.23011" lon="6.0268">
        <ele>2000.5299072266</ele>
        <time>2018-01-25T10:41:34Z</time>
      </trkpt>
      <trkpt lat="45.23016" lon="6.02696">
        <ele>2005.0568847656</ele>
        <time>2018-01-25T10:41:57Z</time>
      </trkpt>
      <trkpt lat="45.23017" lon="6.02702">
        <ele>2006.8529052734</ele>
        <time>2018-01-25T10:42:20Z</time>
      </trkpt>
      <trkpt lat="45.23018" lon="6.02701">
        <ele>2007.2038574219</ele>
        <time>2018-01-25T10:42:27Z</time>
      </trkpt>
      <trkpt lat="45.23032" lon="6.02689">
        <ele>2011.8070068359</ele>
        <time>2018-01-25T10:42:56Z</time>
      </trkpt>
      <trkpt lat="45.23037" lon="6.02673">
        <ele>2011.9727783203</ele>
        <time>2018-01-25T10:43:19Z</time>
      </trkpt>
      <trkpt lat="45.2305" lon="6.02692">
        <ele>2017.3209228516</ele>
        <time>2018-01-25T10:43:48Z</time>
      </trkpt>
      <trkpt lat="45.23053" lon="6.02704">
        <ele>2020.6722412109</ele>
        <time>2018-01-25T10:44:04Z</time>
      </trkpt>
      <trkpt lat="45.23052" lon="6.02705">
        <ele>2020.4174804688</ele>
        <time>2018-01-25T10:44:48Z</time>
      </trkpt>
      <trkpt lat="45.23063" lon="6.02689">
        <ele>2023.3851318359</ele>
        <time>2018-01-25T10:45:22Z</time>
      </trkpt>
      <trkpt lat="45.23066" lon="6.02682">
        <ele>2025.0308837891</ele>
        <time>2018-01-25T10:45:35Z</time>
      </trkpt>
      <trkpt lat="45.23073" lon="6.0265">
        <ele>2030.3493652344</ele>
        <time>2018-01-25T10:46:19Z</time>
      </trkpt>
      <trkpt lat="45.23079" lon="6.02641">
        <ele>2034.1809082031</ele>
        <time>2018-01-25T10:46:36Z</time>
      </trkpt>
      <trkpt lat="45.23081" lon="6.02642">
        <ele>2035.4631347656</ele>
        <time>2018-01-25T10:46:42Z</time>
      </trkpt>
      <trkpt lat="45.23082" lon="6.02643">
        <ele>2035.9730224609</ele>
        <time>2018-01-25T10:46:53Z</time>
      </trkpt>
      <trkpt lat="45.23096" lon="6.02658">
        <ele>2043.4586181641</ele>
        <time>2018-01-25T10:47:22Z</time>
      </trkpt>
      <trkpt lat="45.23111" lon="6.02682">
        <ele>2051.255859375</ele>
        <time>2018-01-25T10:48:00Z</time>
      </trkpt>
      <trkpt lat="45.23119" lon="6.02697">
        <ele>2056.9914550781</ele>
        <time>2018-01-25T10:48:23Z</time>
      </trkpt>
      <trkpt lat="45.23123" lon="6.02709">
        <ele>2061.1840820312</ele>
        <time>2018-01-25T10:48:41Z</time>
      </trkpt>
      <trkpt lat="45.23124" lon="6.02714">
        <ele>2062.5551757812</ele>
        <time>2018-01-25T10:48:47Z</time>
      </trkpt>
      <trkpt lat="45.23124" lon="6.0273">
        <ele>2066.1804199219</ele>
        <time>2018-01-25T10:49:10Z</time>
      </trkpt>
      <trkpt lat="45.23125" lon="6.02729">
        <ele>2066.4187011719</ele>
        <time>2018-01-25T10:49:22Z</time>
      </trkpt>
      <trkpt lat="45.23135" lon="6.02717">
        <ele>2069.9770507812</ele>
        <time>2018-01-25T10:49:48Z</time>
      </trkpt>
      <trkpt lat="45.23142" lon="6.02706">
        <ele>2070.9096679688</ele>
        <time>2018-01-25T10:50:06Z</time>
      </trkpt>
      <trkpt lat="45.23144" lon="6.02702">
        <ele>2071.1916503906</ele>
        <time>2018-01-25T10:50:13Z</time>
      </trkpt>
      <trkpt lat="45.23154" lon="6.02716">
        <ele>2078.7038574219</ele>
        <time>2018-01-25T10:50:35Z</time>
      </trkpt>
      <trkpt lat="45.23156" lon="6.02718">
        <ele>2080.2978515625</ele>
        <time>2018-01-25T10:50:41Z</time>
      </trkpt>
      <trkpt lat="45.23165" lon="6.02715">
        <ele>2084.0563964844</ele>
        <time>2018-01-25T10:50:57Z</time>
      </trkpt>
      <trkpt lat="45.2318" lon="6.02716">
        <ele>2089.1137695312</ele>
        <time>2018-01-25T10:51:22Z</time>
      </trkpt>
      <trkpt lat="45.23182" lon="6.02715">
        <ele>2089.8298339844</ele>
        <time>2018-01-25T10:52:08Z</time>
      </trkpt>
      <trkpt lat="45.23184" lon="6.02716">
        <ele>2090.6706542969</ele>
        <time>2018-01-25T10:52:13Z</time>
      </trkpt>
      <trkpt lat="45.23194" lon="6.02702">
        <ele>2093.8657226562</ele>
        <time>2018-01-25T10:52:38Z</time>
      </trkpt>
      <trkpt lat="45.23198" lon="6.02709">
        <ele>2095.0903320312</ele>
        <time>2018-01-25T10:52:49Z</time>
      </trkpt>
      <trkpt lat="45.23202" lon="6.02722">
        <ele>2096.8684082031</ele>
        <time>2018-01-25T10:53:05Z</time>
      </trkpt>
      <trkpt lat="45.23202" lon="6.02735">
        <ele>2101.21484375</ele>
        <time>2018-01-25T10:53:22Z</time>
      </trkpt>
      <trkpt lat="45.23203" lon="6.02737">
        <ele>2102.3918457031</ele>
        <time>2018-01-25T10:53:35Z</time>
      </trkpt>
      <trkpt lat="45.23206" lon="6.02735">
        <ele>2102.9487304688</ele>
        <time>2018-01-25T10:53:41Z</time>
      </trkpt>
      <trkpt lat="45.23219" lon="6.02725">
        <ele>2104.8254394531</ele>
        <time>2018-01-25T10:54:09Z</time>
      </trkpt>
      <trkpt lat="45.23223" lon="6.02718">
        <ele>2104.7492675781</ele>
        <time>2018-01-25T10:54:21Z</time>
      </trkpt>
      <trkpt lat="45.23225" lon="6.02713">
        <ele>2105.0517578125</ele>
        <time>2018-01-25T10:54:40Z</time>
      </trkpt>
      <trkpt lat="45.23227" lon="6.02713">
        <ele>2105.9794921875</ele>
        <time>2018-01-25T10:54:45Z</time>
      </trkpt>
      <trkpt lat="45.23234" lon="6.02743">
        <ele>2117.2736816406</ele>
        <time>2018-01-25T10:55:23Z</time>
      </trkpt>
      <trkpt lat="45.23235" lon="6.02743">
        <ele>2117.7387695312</ele>
        <time>2018-01-25T10:55:31Z</time>
      </trkpt>
      <trkpt lat="45.23244" lon="6.02736">
        <ele>2119.927734375</ele>
        <time>2018-01-25T10:55:50Z</time>
      </trkpt>
      <trkpt lat="45.2325" lon="6.02723">
        <ele>2120.0986328125</ele>
        <time>2018-01-25T10:56:08Z</time>
      </trkpt>
      <trkpt lat="45.23252" lon="6.02724">
        <ele>2121.6149902344</ele>
        <time>2018-01-25T10:56:16Z</time>
      </trkpt>
      <trkpt lat="45.23262" lon="6.02741">
        <ele>2129.1721191406</ele>
        <time>2018-01-25T10:56:45Z</time>
      </trkpt>
      <trkpt lat="45.23265" lon="6.02759">
        <ele>2135.3579101562</ele>
        <time>2018-01-25T10:57:10Z</time>
      </trkpt>
      <trkpt lat="45.23266" lon="6.02759">
        <ele>2136.0185546875</ele>
        <time>2018-01-25T10:57:18Z</time>
      </trkpt>
      <trkpt lat="45.23281" lon="6.02743">
        <ele>2138.3771972656</ele>
        <time>2018-01-25T10:57:56Z</time>
      </trkpt>
      <trkpt lat="45.23309" lon="6.02774">
        <ele>2151.9985351562</ele>
        <time>2018-01-25T10:58:55Z</time>
      </trkpt>
      <trkpt lat="45.23321" lon="6.02781">
        <ele>2155.9177246094</ele>
        <time>2018-01-25T10:59:14Z</time>
      </trkpt>
      <trkpt lat="45.23319" lon="6.02782">
        <ele>2155.4375</ele>
        <time>2018-01-25T11:00:14Z</time>
      </trkpt>
      <trkpt lat="45.23323" lon="6.02782">
        <ele>2156.62890625</ele>
        <time>2018-01-25T11:01:12Z</time>
      </trkpt>
      <trkpt lat="45.23352" lon="6.02795">
        <ele>2159.8098144531</ele>
        <time>2018-01-25T11:01:48Z</time>
      </trkpt>
      <trkpt lat="45.23357" lon="6.02798">
        <ele>2159.8852539062</ele>
        <time>2018-01-25T11:01:54Z</time>
      </trkpt>
      <trkpt lat="45.23401" lon="6.02827">
        <ele>2160.1032714844</ele>
        <time>2018-01-25T11:03:01Z</time>
      </trkpt>
      <trkpt lat="45.2343" lon="6.02852">
        <ele>2160</ele>
        <time>2018-01-25T11:03:37Z</time>
      </trkpt>
      <trkpt lat="45.23468" lon="6.02877">
        <ele>2160</ele>
        <time>2018-01-25T11:04:25Z</time>
      </trkpt>
      <trkpt lat="45.23472" lon="6.0288">
        <ele>2160</ele>
        <time>2018-01-25T11:04:31Z</time>
      </trkpt>
      <trkpt lat="45.23488" lon="6.02894">
        <ele>2160.8146972656</ele>
        <time>2018-01-25T11:04:55Z</time>
      </trkpt>
      <trkpt lat="45.235" lon="6.02904">
        <ele>2163.7604980469</ele>
        <time>2018-01-25T11:05:13Z</time>
      </trkpt>
      <trkpt lat="45.23504" lon="6.02906">
        <ele>2165.0495605469</ele>
        <time>2018-01-25T11:05:19Z</time>
      </trkpt>
      <trkpt lat="45.23515" lon="6.02912">
        <ele>2167.9401855469</ele>
        <time>2018-01-25T11:05:42Z</time>
      </trkpt>
      <trkpt lat="45.23536" lon="6.02925">
        <ele>2171.8247070312</ele>
        <time>2018-01-25T11:06:24Z</time>
      </trkpt>
      <trkpt lat="45.23537" lon="6.02925">
        <ele>2171.9711914062</ele>
        <time>2018-01-25T11:06:45Z</time>
      </trkpt>
      <trkpt lat="45.23539" lon="6.02926">
        <ele>2172.2348632812</ele>
        <time>2018-01-25T11:06:52Z</time>
      </trkpt>
      <trkpt lat="45.23568" lon="6.0294">
        <ele>2177.3151855469</ele>
        <time>2018-01-25T11:07:34Z</time>
      </trkpt>
      <trkpt lat="45.23608" lon="6.02967">
        <ele>2183.552734375</ele>
        <time>2018-01-25T11:08:41Z</time>
      </trkpt>
      <trkpt lat="45.23611" lon="6.02968">
        <ele>2183.9079589844</ele>
        <time>2018-01-25T11:08:55Z</time>
      </trkpt>
      <trkpt lat="45.23639" lon="6.02986">
        <ele>2188.2153320312</ele>
        <time>2018-01-25T11:09:43Z</time>
      </trkpt>
      <trkpt lat="45.23674" lon="6.03006">
        <ele>2198.31640625</ele>
        <time>2018-01-25T11:10:42Z</time>
      </trkpt>
      <trkpt lat="45.23703" lon="6.03033">
        <ele>2204.0703125</ele>
        <time>2018-01-25T11:11:41Z</time>
      </trkpt>
      <trkpt lat="45.23706" lon="6.03036">
        <ele>2205.0219726562</ele>
        <time>2018-01-25T11:11:47Z</time>
      </trkpt>
      <trkpt lat="45.23707" lon="6.03036">
        <ele>2205.5368652344</ele>
        <time>2018-01-25T11:11:59Z</time>
      </trkpt>
      <trkpt lat="45.23707" lon="6.03031">
        <ele>2205.8464355469</ele>
        <time>2018-01-25T11:12:05Z</time>
      </trkpt>
      <trkpt lat="45.23706" lon="6.03016">
        <ele>2208.6396484375</ele>
        <time>2018-01-25T11:12:22Z</time>
      </trkpt>
      <trkpt lat="45.23725" lon="6.03041">
        <ele>2213.4423828125</ele>
        <time>2018-01-25T11:13:08Z</time>
      </trkpt>
      <trkpt lat="45.23726" lon="6.03043">
        <ele>2213.9606933594</ele>
        <time>2018-01-25T11:13:25Z</time>
      </trkpt>
      <trkpt lat="45.23729" lon="6.03047">
        <ele>2215.1484375</ele>
        <time>2018-01-25T11:13:32Z</time>
      </trkpt>
      <trkpt lat="45.23738" lon="6.03067">
        <ele>2220.65625</ele>
        <time>2018-01-25T11:14:04Z</time>
      </trkpt>
      <trkpt lat="45.23738" lon="6.03066">
        <ele>2220.7026367188</ele>
        <time>2018-01-25T11:14:11Z</time>
      </trkpt>
      <trkpt lat="45.23741" lon="6.03042">
        <ele>2222.53125</ele>
        <time>2018-01-25T11:14:34Z</time>
      </trkpt>
      <trkpt lat="45.23748" lon="6.03029">
        <ele>2227.5080566406</ele>
        <time>2018-01-25T11:15:02Z</time>
      </trkpt>
      <trkpt lat="45.23751" lon="6.03033">
        <ele>2229.2436523438</ele>
        <time>2018-01-25T11:15:16Z</time>
      </trkpt>
      <trkpt lat="45.23753" lon="6.03034">
        <ele>2229.8764648438</ele>
        <time>2018-01-25T11:15:33Z</time>
      </trkpt>
      <trkpt lat="45.23759" lon="6.03044">
        <ele>2231.7863769531</ele>
        <time>2018-01-25T11:15:50Z</time>
      </trkpt>
      <trkpt lat="45.2376" lon="6.03044">
        <ele>2232.3286132812</ele>
        <time>2018-01-25T11:15:59Z</time>
      </trkpt>
      <trkpt lat="45.23761" lon="6.03013">
        <ele>2239.0107421875</ele>
        <time>2018-01-25T11:16:48Z</time>
      </trkpt>
      <trkpt lat="45.23764" lon="6.02968">
        <ele>2252.5935058594</ele>
        <time>2018-01-25T11:17:54Z</time>
      </trkpt>
      <trkpt lat="45.23766" lon="6.02968">
        <ele>2253.1804199219</ele>
        <time>2018-01-25T11:18:00Z</time>
      </trkpt>
      <trkpt lat="45.23796" lon="6.03001">
        <ele>2257.6901855469</ele>
        <time>2018-01-25T11:19:16Z</time>
      </trkpt>
      <trkpt lat="45.23797" lon="6.03">
        <ele>2258.3317871094</ele>
        <time>2018-01-25T11:19:28Z</time>
      </trkpt>
      <trkpt lat="45.23798" lon="6.02978">
        <ele>2263.6086425781</ele>
        <time>2018-01-25T11:19:56Z</time>
      </trkpt>
      <trkpt lat="45.238" lon="6.0295">
        <ele>2271.2104492188</ele>
        <time>2018-01-25T11:20:35Z</time>
      </trkpt>
      <trkpt lat="45.23798" lon="6.02946">
        <ele>2272.0710449219</ele>
        <time>2018-01-25T11:20:42Z</time>
      </trkpt>
      <trkpt lat="45.23794" lon="6.0293">
        <ele>2275.9338378906</ele>
        <time>2018-01-25T11:21:06Z</time>
      </trkpt>
      <trkpt lat="45.23795" lon="6.02928">
        <ele>2276.6623535156</ele>
        <time>2018-01-25T11:21:20Z</time>
      </trkpt>
      <trkpt lat="45.23809" lon="6.02939">
        <ele>2279.7397460938</ele>
        <time>2018-01-25T11:21:58Z</time>
      </trkpt>
      <trkpt lat="45.23827" lon="6.02949">
        <ele>2288.9682617188</ele>
        <time>2018-01-25T11:22:41Z</time>
      </trkpt>
      <trkpt lat="45.23828" lon="6.02948">
        <ele>2289.6711425781</ele>
        <time>2018-01-25T11:22:56Z</time>
      </trkpt>
      <trkpt lat="45.23826" lon="6.02932">
        <ele>2294.5288085938</ele>
        <time>2018-01-25T11:23:19Z</time>
      </trkpt>
      <trkpt lat="45.23824" lon="6.02914">
        <ele>2300.9665527344</ele>
        <time>2018-01-25T11:23:43Z</time>
      </trkpt>
      <trkpt lat="45.23824" lon="6.02903">
        <ele>2305.6520996094</ele>
        <time>2018-01-25T11:23:58Z</time>
      </trkpt>
      <trkpt lat="45.23829" lon="6.02903">
        <ele>2310.09765625</ele>
        <time>2018-01-25T11:24:11Z</time>
      </trkpt>
      <trkpt lat="45.23837" lon="6.02902">
        <ele>2315.1870117188</ele>
        <time>2018-01-25T11:24:27Z</time>
      </trkpt>
      <trkpt lat="45.23835" lon="6.029">
        <ele>2315.3913574219</ele>
        <time>2018-01-25T11:25:02Z</time>
      </trkpt>
      <trkpt lat="45.23829" lon="6.02886">
        <ele>2317.6618652344</ele>
        <time>2018-01-25T11:25:26Z</time>
      </trkpt>
      <trkpt lat="45.23828" lon="6.0288">
        <ele>2318.8720703125</ele>
        <time>2018-01-25T11:25:40Z</time>
      </trkpt>
      <trkpt lat="45.23851" lon="6.02882">
        <ele>2327.2395019531</ele>
        <time>2018-01-25T11:26:36Z</time>
      </trkpt>
      <trkpt lat="45.23856" lon="6.02882">
        <ele>2328.5578613281</ele>
        <time>2018-01-25T11:26:49Z</time>
      </trkpt>
      <trkpt lat="45.23864" lon="6.02886">
        <ele>2329.9702148438</ele>
        <time>2018-01-25T11:27:07Z</time>
      </trkpt>
      <trkpt lat="45.23867" lon="6.0289">
        <ele>2330.0649414062</ele>
        <time>2018-01-25T11:27:15Z</time>
      </trkpt>
      <trkpt lat="45.23868" lon="6.02893">
        <ele>2329.7526855469</ele>
        <time>2018-01-25T11:27:24Z</time>
      </trkpt>
      <trkpt lat="45.23866" lon="6.02871">
        <ele>2334.9853515625</ele>
        <time>2018-01-25T11:28:03Z</time>
      </trkpt>
      <trkpt lat="45.23862" lon="6.02846">
        <ele>2342.4577636719</ele>
        <time>2018-01-25T11:28:40Z</time>
      </trkpt>
      <trkpt lat="45.23864" lon="6.02845">
        <ele>2343.4060058594</ele>
        <time>2018-01-25T11:28:46Z</time>
      </trkpt>
      <trkpt lat="45.23865" lon="6.02846">
        <ele>2343.6640625</ele>
        <time>2018-01-25T11:29:05Z</time>
      </trkpt>
      <trkpt lat="45.23879" lon="6.02847">
        <ele>2349.2993164062</ele>
        <time>2018-01-25T11:29:33Z</time>
      </trkpt>
      <trkpt lat="45.23889" lon="6.02854">
        <ele>2349.7397460938</ele>
        <time>2018-01-25T11:29:58Z</time>
      </trkpt>
      <trkpt lat="45.23889" lon="6.02853">
        <ele>2350.5334472656</ele>
        <time>2018-01-25T11:30:11Z</time>
      </trkpt>
      <trkpt lat="45.23889" lon="6.02816">
        <ele>2365.9318847656</ele>
        <time>2018-01-25T11:31:00Z</time>
      </trkpt>
      <trkpt lat="45.2389" lon="6.02817">
        <ele>2366.1745605469</ele>
        <time>2018-01-25T11:31:06Z</time>
      </trkpt>
      <trkpt lat="45.239" lon="6.02817">
        <ele>2369.0617675781</ele>
        <time>2018-01-25T11:31:28Z</time>
      </trkpt>
      <trkpt lat="45.23896" lon="6.02796">
        <ele>2373.6613769531</ele>
        <time>2018-01-25T11:32:00Z</time>
      </trkpt>
      <trkpt lat="45.23895" lon="6.02792">
        <ele>2374.4367675781</ele>
        <time>2018-01-25T11:32:06Z</time>
      </trkpt>
      <trkpt lat="45.23882" lon="6.02769">
        <ele>2376.8994140625</ele>
        <time>2018-01-25T11:38:34Z</time>
      </trkpt>
      <trkpt lat="45.23881" lon="6.02771">
        <ele>2376.173828125</ele>
        <time>2018-01-25T11:39:55Z</time>
      </trkpt>
      <trkpt lat="45.23881" lon="6.02769">
        <ele>2376.5112304688</ele>
        <time>2018-01-25T11:40:08Z</time>
      </trkpt>
      <trkpt lat="45.23884" lon="6.02773">
        <ele>2376.9436035156</ele>
        <time>2018-01-25T11:45:10Z</time>
      </trkpt>
      <trkpt lat="45.23883" lon="6.02776">
        <ele>2376.2111816406</ele>
        <time>2018-01-25T11:46:08Z</time>
      </trkpt>
      <trkpt lat="45.23883" lon="6.02783">
        <ele>2374.2072753906</ele>
        <time>2018-01-25T11:46:13Z</time>
      </trkpt>
      <trkpt lat="45.23884" lon="6.02788">
        <ele>2372.6743164062</ele>
        <time>2018-01-25T11:46:19Z</time>
      </trkpt>
      <trkpt lat="45.23885" lon="6.02796">
        <ele>2370.7019042969</ele>
        <time>2018-01-25T11:46:24Z</time>
      </trkpt>
      <trkpt lat="45.23892" lon="6.02815">
        <ele>2367.1796875</ele>
        <time>2018-01-25T11:46:29Z</time>
      </trkpt>
      <trkpt lat="45.23879" lon="6.0285">
        <ele>2347.6687011719</ele>
        <time>2018-01-25T11:46:39Z</time>
      </trkpt>
      <trkpt lat="45.23869" lon="6.02868">
        <ele>2336.8166503906</ele>
        <time>2018-01-25T11:46:44Z</time>
      </trkpt>
      <trkpt lat="45.23859" lon="6.02883">
        <ele>2329.1484375</ele>
        <time>2018-01-25T11:46:49Z</time>
      </trkpt>
      <trkpt lat="45.23848" lon="6.02893">
        <ele>2322.6716308594</ele>
        <time>2018-01-25T11:46:54Z</time>
      </trkpt>
      <trkpt lat="45.23838" lon="6.02904">
        <ele>2314.8989257812</ele>
        <time>2018-01-25T11:46:59Z</time>
      </trkpt>
      <trkpt lat="45.23831" lon="6.02912">
        <ele>2307.3481445312</ele>
        <time>2018-01-25T11:47:04Z</time>
      </trkpt>
      <trkpt lat="45.23818" lon="6.0291">
        <ele>2298.0908203125</ele>
        <time>2018-01-25T11:47:09Z</time>
      </trkpt>
      <trkpt lat="45.23816" lon="6.02914">
        <ele>2294.162109375</ele>
        <time>2018-01-25T11:47:29Z</time>
      </trkpt>
      <trkpt lat="45.23815" lon="6.02915">
        <ele>2292.6867675781</ele>
        <time>2018-01-25T11:47:46Z</time>
      </trkpt>
      <trkpt lat="45.23778" lon="6.02926">
        <ele>2272.4147949219</ele>
        <time>2018-01-25T11:48:01Z</time>
      </trkpt>
      <trkpt lat="45.23767" lon="6.02933">
        <ele>2266.2976074219</ele>
        <time>2018-01-25T11:48:06Z</time>
      </trkpt>
      <trkpt lat="45.23745" lon="6.02955">
        <ele>2251.2065429688</ele>
        <time>2018-01-25T11:48:16Z</time>
      </trkpt>
      <trkpt lat="45.23722" lon="6.02974">
        <ele>2233.7927246094</ele>
        <time>2018-01-25T11:48:26Z</time>
      </trkpt>
      <trkpt lat="45.23718" lon="6.02974">
        <ele>2231.9133300781</ele>
        <time>2018-01-25T11:48:44Z</time>
      </trkpt>
      <trkpt lat="45.23717" lon="6.02972">
        <ele>2232.2797851562</ele>
        <time>2018-01-25T11:48:50Z</time>
      </trkpt>
      <trkpt lat="45.23716" lon="6.02972">
        <ele>2231.9809570312</ele>
        <time>2018-01-25T11:49:02Z</time>
      </trkpt>
      <trkpt lat="45.23714" lon="6.02963">
        <ele>2234.6245117188</ele>
        <time>2018-01-25T11:49:37Z</time>
      </trkpt>
      <trkpt lat="45.23714" lon="6.02965">
        <ele>2233.7114257812</ele>
        <time>2018-01-25T11:49:59Z</time>
      </trkpt>
      <trkpt lat="45.23715" lon="6.02968">
        <ele>2232.7602539062</ele>
        <time>2018-01-25T11:50:18Z</time>
      </trkpt>
      <trkpt lat="45.23716" lon="6.02971">
        <ele>2231.9055175781</ele>
        <time>2018-01-25T11:50:37Z</time>
      </trkpt>
      <trkpt lat="45.23713" lon="6.02973">
        <ele>2229.1845703125</ele>
        <time>2018-01-25T11:50:42Z</time>
      </trkpt>
      <trkpt lat="45.23696" lon="6.03">
        <ele>2209.6025390625</ele>
        <time>2018-01-25T11:50:52Z</time>
      </trkpt>
      <trkpt lat="45.23687" lon="6.03011">
        <ele>2202.2619628906</ele>
        <time>2018-01-25T11:50:58Z</time>
      </trkpt>
      <trkpt lat="45.23677" lon="6.03016">
        <ele>2196.4548339844</ele>
        <time>2018-01-25T11:51:03Z</time>
      </trkpt>
      <trkpt lat="45.23661" lon="6.03009">
        <ele>2192.0219726562</ele>
        <time>2018-01-25T11:51:08Z</time>
      </trkpt>
      <trkpt lat="45.23611" lon="6.02975">
        <ele>2182.7683105469</ele>
        <time>2018-01-25T11:51:23Z</time>
      </trkpt>
      <trkpt lat="45.23599" lon="6.02963">
        <ele>2181.9873046875</ele>
        <time>2018-01-25T11:51:28Z</time>
      </trkpt>
      <trkpt lat="45.23583" lon="6.02938">
        <ele>2178.4870605469</ele>
        <time>2018-01-25T11:51:39Z</time>
      </trkpt>
      <trkpt lat="45.23567" lon="6.02925">
        <ele>2175.220703125</ele>
        <time>2018-01-25T11:51:44Z</time>
      </trkpt>
      <trkpt lat="45.23529" lon="6.02924">
        <ele>2171.2626953125</ele>
        <time>2018-01-25T11:51:49Z</time>
      </trkpt>
      <trkpt lat="45.23494" lon="6.02894">
        <ele>2160.9477539062</ele>
        <time>2018-01-25T11:51:54Z</time>
      </trkpt>
      <trkpt lat="45.2341" lon="6.02847">
        <ele>2160</ele>
        <time>2018-01-25T11:52:05Z</time>
      </trkpt>
      <trkpt lat="45.23378" lon="6.02842">
        <ele>2160</ele>
        <time>2018-01-25T11:52:16Z</time>
      </trkpt>
      <trkpt lat="45.23365" lon="6.02833">
        <ele>2160</ele>
        <time>2018-01-25T11:52:21Z</time>
      </trkpt>
      <trkpt lat="45.2335" lon="6.02824">
        <ele>2159.6052246094</ele>
        <time>2018-01-25T11:52:26Z</time>
      </trkpt>
      <trkpt lat="45.2334" lon="6.02809">
        <ele>2159.234375</ele>
        <time>2018-01-25T11:52:37Z</time>
      </trkpt>
      <trkpt lat="45.23337" lon="6.02807">
        <ele>2159.1381835938</ele>
        <time>2018-01-25T11:52:45Z</time>
      </trkpt>
      <trkpt lat="45.2332" lon="6.02801">
        <ele>2155.5476074219</ele>
        <time>2018-01-25T11:53:21Z</time>
      </trkpt>
      <trkpt lat="45.23315" lon="6.02784">
        <ele>2154.03515625</ele>
        <time>2018-01-25T11:53:54Z</time>
      </trkpt>
      <trkpt lat="45.23314" lon="6.02783">
        <ele>2153.6616210938</ele>
        <time>2018-01-25T11:54:11Z</time>
      </trkpt>
      <trkpt lat="45.23315" lon="6.02788">
        <ele>2154.0747070312</ele>
        <time>2018-01-25T11:56:46Z</time>
      </trkpt>
      <trkpt lat="45.23315" lon="6.02786">
        <ele>2154.0510253906</ele>
        <time>2018-01-25T11:57:26Z</time>
      </trkpt>
      <trkpt lat="45.23313" lon="6.02782">
        <ele>2153.4106445312</ele>
        <time>2018-01-25T11:57:33Z</time>
      </trkpt>
      <trkpt lat="45.23294" lon="6.02766">
        <ele>2146.6096191406</ele>
        <time>2018-01-25T11:57:39Z</time>
      </trkpt>
      <trkpt lat="45.23276" lon="6.02735">
        <ele>2135.5698242188</ele>
        <time>2018-01-25T11:57:45Z</time>
      </trkpt>
      <trkpt lat="45.2326" lon="6.02691">
        <ele>2126.8081054688</ele>
        <time>2018-01-25T11:57:51Z</time>
      </trkpt>
      <trkpt lat="45.23241" lon="6.02673">
        <ele>2122.3146972656</ele>
        <time>2018-01-25T11:57:57Z</time>
      </trkpt>
      <trkpt lat="45.2322" lon="6.02667">
        <ele>2109.1069335938</ele>
        <time>2018-01-25T11:58:02Z</time>
      </trkpt>
      <trkpt lat="45.23198" lon="6.02672">
        <ele>2099.9250488281</ele>
        <time>2018-01-25T11:58:07Z</time>
      </trkpt>
      <trkpt lat="45.23172" lon="6.02655">
        <ele>2090.8225097656</ele>
        <time>2018-01-25T11:58:12Z</time>
      </trkpt>
      <trkpt lat="45.23154" lon="6.02633">
        <ele>2085.1455078125</ele>
        <time>2018-01-25T11:58:17Z</time>
      </trkpt>
      <trkpt lat="45.23137" lon="6.02634">
        <ele>2076.240234375</ele>
        <time>2018-01-25T11:58:23Z</time>
      </trkpt>
      <trkpt lat="45.2312" lon="6.0264">
        <ele>2064.568359375</ele>
        <time>2018-01-25T11:58:29Z</time>
      </trkpt>
      <trkpt lat="45.23103" lon="6.02648">
        <ele>2050.0441894531</ele>
        <time>2018-01-25T11:58:34Z</time>
      </trkpt>
      <trkpt lat="45.2308" lon="6.02638">
        <ele>2035.1541748047</ele>
        <time>2018-01-25T11:58:40Z</time>
      </trkpt>
      <trkpt lat="45.23058" lon="6.02633">
        <ele>2023.7678222656</ele>
        <time>2018-01-25T11:58:45Z</time>
      </trkpt>
      <trkpt lat="45.23055" lon="6.02619">
        <ele>2023.8675537109</ele>
        <time>2018-01-25T11:58:54Z</time>
      </trkpt>
      <trkpt lat="45.23055" lon="6.02617">
        <ele>2024.0529785156</ele>
        <time>2018-01-25T11:59:18Z</time>
      </trkpt>
      <trkpt lat="45.23054" lon="6.02615">
        <ele>2023.9328613281</ele>
        <time>2018-01-25T11:59:24Z</time>
      </trkpt>
      <trkpt lat="45.2305" lon="6.026">
        <ele>2023.4788818359</ele>
        <time>2018-01-25T11:59:29Z</time>
      </trkpt>
      <trkpt lat="45.23041" lon="6.02564">
        <ele>2022.5124511719</ele>
        <time>2018-01-25T11:59:34Z</time>
      </trkpt>
      <trkpt lat="45.23018" lon="6.02568">
        <ele>2010.783203125</ele>
        <time>2018-01-25T11:59:40Z</time>
      </trkpt>
      <trkpt lat="45.22997" lon="6.02558">
        <ele>1998.2690429688</ele>
        <time>2018-01-25T11:59:46Z</time>
      </trkpt>
      <trkpt lat="45.22984" lon="6.02535">
        <ele>1992.6236572266</ele>
        <time>2018-01-25T11:59:51Z</time>
      </trkpt>
      <trkpt lat="45.22961" lon="6.02478">
        <ele>1988.1772460938</ele>
        <time>2018-01-25T12:00:02Z</time>
      </trkpt>
      <trkpt lat="45.22946" lon="6.02458">
        <ele>1984.6297607422</ele>
        <time>2018-01-25T12:00:07Z</time>
      </trkpt>
      <trkpt lat="45.22922" lon="6.0244">
        <ele>1976.8983154297</ele>
        <time>2018-01-25T12:00:13Z</time>
      </trkpt>
      <trkpt lat="45.22905" lon="6.0242">
        <ele>1971.2084960938</ele>
        <time>2018-01-25T12:00:18Z</time>
      </trkpt>
      <trkpt lat="45.229" lon="6.02411">
        <ele>1969.0611572266</ele>
        <time>2018-01-25T12:00:29Z</time>
      </trkpt>
      <trkpt lat="45.22897" lon="6.02406">
        <ele>1967.7276611328</ele>
        <time>2018-01-25T12:00:37Z</time>
      </trkpt>
      <trkpt lat="45.22894" lon="6.02402">
        <ele>1966.1022949219</ele>
        <time>2018-01-25T12:01:01Z</time>
      </trkpt>
      <trkpt lat="45.22874" lon="6.02397">
        <ele>1957.939453125</ele>
        <time>2018-01-25T12:01:07Z</time>
      </trkpt>
      <trkpt lat="45.22853" lon="6.02402">
        <ele>1949.5549316406</ele>
        <time>2018-01-25T12:01:13Z</time>
      </trkpt>
      <trkpt lat="45.22829" lon="6.02397">
        <ele>1940.6507568359</ele>
        <time>2018-01-25T12:01:19Z</time>
      </trkpt>
      <trkpt lat="45.22818" lon="6.02386">
        <ele>1939.7583007812</ele>
        <time>2018-01-25T12:01:25Z</time>
      </trkpt>
      <trkpt lat="45.22793" lon="6.02376">
        <ele>1935.1068115234</ele>
        <time>2018-01-25T12:01:31Z</time>
      </trkpt>
      <trkpt lat="45.2277" lon="6.02354">
        <ele>1930.5875244141</ele>
        <time>2018-01-25T12:01:37Z</time>
      </trkpt>
      <trkpt lat="45.22747" lon="6.02345">
        <ele>1922.5988769531</ele>
        <time>2018-01-25T12:01:43Z</time>
      </trkpt>
      <trkpt lat="45.22688" lon="6.02357">
        <ele>1899.4582519531</ele>
        <time>2018-01-25T12:01:54Z</time>
      </trkpt>
      <trkpt lat="45.22661" lon="6.02337">
        <ele>1889.1624755859</ele>
        <time>2018-01-25T12:02:00Z</time>
      </trkpt>
      <trkpt lat="45.22636" lon="6.02334">
        <ele>1882.6239013672</ele>
        <time>2018-01-25T12:02:05Z</time>
      </trkpt>
      <trkpt lat="45.22608" lon="6.02325">
        <ele>1873.0867919922</ele>
        <time>2018-01-25T12:02:11Z</time>
      </trkpt>
      <trkpt lat="45.22587" lon="6.02303">
        <ele>1867.6597900391</ele>
        <time>2018-01-25T12:02:16Z</time>
      </trkpt>
      <trkpt lat="45.22575" lon="6.02291">
        <ele>1863.8168945312</ele>
        <time>2018-01-25T12:02:39Z</time>
      </trkpt>
      <trkpt lat="45.22574" lon="6.02291">
        <ele>1863.1697998047</ele>
        <time>2018-01-25T12:03:02Z</time>
      </trkpt>
      <trkpt lat="45.22558" lon="6.02287">
        <ele>1856.0989990234</ele>
        <time>2018-01-25T12:03:07Z</time>
      </trkpt>
      <trkpt lat="45.22543" lon="6.02293">
        <ele>1846.0163574219</ele>
        <time>2018-01-25T12:03:12Z</time>
      </trkpt>
      <trkpt lat="45.22528" lon="6.02293">
        <ele>1835.9267578125</ele>
        <time>2018-01-25T12:03:17Z</time>
      </trkpt>
      <trkpt lat="45.2251" lon="6.02293">
        <ele>1824.3686523438</ele>
        <time>2018-01-25T12:03:22Z</time>
      </trkpt>
      <trkpt lat="45.22493" lon="6.02287">
        <ele>1814.6546630859</ele>
        <time>2018-01-25T12:03:27Z</time>
      </trkpt>
      <trkpt lat="45.22478" lon="6.02269">
        <ele>1807.5571289062</ele>
        <time>2018-01-25T12:03:32Z</time>
      </trkpt>
      <trkpt lat="45.22466" lon="6.02258">
        <ele>1800.9079589844</ele>
        <time>2018-01-25T12:03:37Z</time>
      </trkpt>
      <trkpt lat="45.22468" lon="6.02243">
        <ele>1801.6936035156</ele>
        <time>2018-01-25T12:03:42Z</time>
      </trkpt>
      <trkpt lat="45.22477" lon="6.02187">
        <ele>1798.0266113281</ele>
        <time>2018-01-25T12:03:52Z</time>
      </trkpt>
      <trkpt lat="45.22477" lon="6.02172">
        <ele>1795.3580322266</ele>
        <time>2018-01-25T12:03:57Z</time>
      </trkpt>
      <trkpt lat="45.22475" lon="6.02173">
        <ele>1793.8531494141</ele>
        <time>2018-01-25T12:04:17Z</time>
      </trkpt>
      <trkpt lat="45.22442" lon="6.02167">
        <ele>1774.3336181641</ele>
        <time>2018-01-25T12:04:29Z</time>
      </trkpt>
      <trkpt lat="45.2242" lon="6.02142">
        <ele>1760.0908203125</ele>
        <time>2018-01-25T12:04:39Z</time>
      </trkpt>
      <trkpt lat="45.224" lon="6.02132">
        <ele>1747.3920898438</ele>
        <time>2018-01-25T12:04:45Z</time>
      </trkpt>
      <trkpt lat="45.22375" lon="6.02122">
        <ele>1737.7237548828</ele>
        <time>2018-01-25T12:04:51Z</time>
      </trkpt>
      <trkpt lat="45.22367" lon="6.02096">
        <ele>1736.1909179688</ele>
        <time>2018-01-25T12:04:56Z</time>
      </trkpt>
      <trkpt lat="45.22361" lon="6.02087">
        <ele>1734.7514648438</ele>
        <time>2018-01-25T12:05:01Z</time>
      </trkpt>
      <trkpt lat="45.22359" lon="6.02089">
        <ele>1734.3724365234</ele>
        <time>2018-01-25T12:05:15Z</time>
      </trkpt>
      <trkpt lat="45.22358" lon="6.02084">
        <ele>1734.2933349609</ele>
        <time>2018-01-25T12:05:35Z</time>
      </trkpt>
      <trkpt lat="45.22357" lon="6.02082">
        <ele>1734.1911621094</ele>
        <time>2018-01-25T12:05:59Z</time>
      </trkpt>
      <trkpt lat="45.22358" lon="6.02091">
        <ele>1734.0773925781</ele>
        <time>2018-01-25T12:06:51Z</time>
      </trkpt>
      <trkpt lat="45.22362" lon="6.02089">
        <ele>1734.9847412109</ele>
        <time>2018-01-25T12:07:27Z</time>
      </trkpt>
      <trkpt lat="45.22361" lon="6.02087">
        <ele>1734.9312744141</ele>
        <time>2018-01-25T12:07:36Z</time>
      </trkpt>
      <trkpt lat="45.2236" lon="6.02085">
        <ele>1734.6774902344</ele>
        <time>2018-01-25T12:07:57Z</time>
      </trkpt>
      <trkpt lat="45.22356" lon="6.02093">
        <ele>1733.5555419922</ele>
        <time>2018-01-25T12:08:39Z</time>
      </trkpt>
      <trkpt lat="45.22356" lon="6.02091">
        <ele>1733.6684570312</ele>
        <time>2018-01-25T12:13:01Z</time>
      </trkpt>
      <trkpt lat="45.22364" lon="6.02086">
        <ele>1735.6180419922</ele>
        <time>2018-01-25T12:15:00Z</time>
      </trkpt>
      <trkpt lat="45.22362" lon="6.02089">
        <ele>1735.072265625</ele>
        <time>2018-01-25T12:18:06Z</time>
      </trkpt>
      <trkpt lat="45.22358" lon="6.02089">
        <ele>1734.0645751953</ele>
        <time>2018-01-25T12:18:26Z</time>
      </trkpt>
      <trkpt lat="45.22358" lon="6.02095">
        <ele>1734.0202636719</ele>
        <time>2018-01-25T12:20:16Z</time>
      </trkpt>
      <trkpt lat="45.22356" lon="6.02095">
        <ele>1733.4893798828</ele>
        <time>2018-01-25T12:21:28Z</time>
      </trkpt>
      <trkpt lat="45.2236" lon="6.02091">
        <ele>1734.4562988281</ele>
        <time>2018-01-25T12:22:35Z</time>
      </trkpt>
      <trkpt lat="45.22361" lon="6.02091">
        <ele>1734.6284179688</ele>
        <time>2018-01-25T12:23:40Z</time>
      </trkpt>
      <trkpt lat="45.22357" lon="6.02092">
        <ele>1733.8979492188</ele>
        <time>2018-01-25T12:23:55Z</time>
      </trkpt>
      <trkpt lat="45.22357" lon="6.0209">
        <ele>1733.8659667969</ele>
        <time>2018-01-25T12:24:25Z</time>
      </trkpt>
      <trkpt lat="45.22356" lon="6.02089">
        <ele>1733.7456054688</ele>
        <time>2018-01-25T12:25:01Z</time>
      </trkpt>
      <trkpt lat="45.22359" lon="6.02091">
        <ele>1734.2176513672</ele>
        <time>2018-01-25T12:25:50Z</time>
      </trkpt>
      <trkpt lat="45.22356" lon="6.02093">
        <ele>1733.5321044922</ele>
        <time>2018-01-25T12:26:55Z</time>
      </trkpt>
      <trkpt lat="45.22358" lon="6.02092">
        <ele>1734.1330566406</ele>
        <time>2018-01-25T12:27:04Z</time>
      </trkpt>
      <trkpt lat="45.22358" lon="6.0209">
        <ele>1734.1124267578</ele>
        <time>2018-01-25T12:27:18Z</time>
      </trkpt>
      <trkpt lat="45.2236" lon="6.02092">
        <ele>1734.4398193359</ele>
        <time>2018-01-25T12:27:24Z</time>
      </trkpt>
      <trkpt lat="45.22358" lon="6.02094">
        <ele>1734.0620117188</ele>
        <time>2018-01-25T12:27:56Z</time>
      </trkpt>
      <trkpt lat="45.22367" lon="6.02112">
        <ele>1735.6375732422</ele>
        <time>2018-01-25T12:28:13Z</time>
      </trkpt>
      <trkpt lat="45.22375" lon="6.02147">
        <ele>1738.2760009766</ele>
        <time>2018-01-25T12:28:42Z</time>
      </trkpt>
      <trkpt lat="45.22377" lon="6.02168">
        <ele>1739.3365478516</ele>
        <time>2018-01-25T12:29:09Z</time>
      </trkpt>
      <trkpt lat="45.22379" lon="6.02202">
        <ele>1744.8878173828</ele>
        <time>2018-01-25T12:30:06Z</time>
      </trkpt>
      <trkpt lat="45.2238" lon="6.02204">
        <ele>1745.25</ele>
        <time>2018-01-25T12:30:19Z</time>
      </trkpt>
      <trkpt lat="45.22383" lon="6.02212">
        <ele>1747.3325195312</ele>
        <time>2018-01-25T12:30:40Z</time>
      </trkpt>
      <trkpt lat="45.22388" lon="6.02236">
        <ele>1752.4185791016</ele>
        <time>2018-01-25T12:31:04Z</time>
      </trkpt>
      <trkpt lat="45.22389" lon="6.02255">
        <ele>1755.8660888672</ele>
        <time>2018-01-25T12:31:22Z</time>
      </trkpt>
      <trkpt lat="45.22385" lon="6.02282">
        <ele>1760.9373779297</ele>
        <time>2018-01-25T12:31:52Z</time>
      </trkpt>
      <trkpt lat="45.22386" lon="6.02292">
        <ele>1762.9243164062</ele>
        <time>2018-01-25T12:32:04Z</time>
      </trkpt>
      <trkpt lat="45.22388" lon="6.023">
        <ele>1764.7423095703</ele>
        <time>2018-01-25T12:32:23Z</time>
      </trkpt>
      <trkpt lat="45.22389" lon="6.02309">
        <ele>1766.560546875</ele>
        <time>2018-01-25T12:32:34Z</time>
      </trkpt>
      <trkpt lat="45.22388" lon="6.0233">
        <ele>1770.1606445312</ele>
        <time>2018-01-25T12:32:59Z</time>
      </trkpt>
      <trkpt lat="45.22391" lon="6.02354">
        <ele>1775.1979980469</ele>
        <time>2018-01-25T12:33:30Z</time>
      </trkpt>
      <trkpt lat="45.22395" lon="6.02371">
        <ele>1778.8243408203</ele>
        <time>2018-01-25T12:33:55Z</time>
      </trkpt>
      <trkpt lat="45.22417" lon="6.02365">
        <ele>1781.6301269531</ele>
        <time>2018-01-25T12:34:35Z</time>
      </trkpt>
      <trkpt lat="45.22422" lon="6.02373">
        <ele>1784.2110595703</ele>
        <time>2018-01-25T12:34:47Z</time>
      </trkpt>
      <trkpt lat="45.22441" lon="6.02403">
        <ele>1793.7593994141</ele>
        <time>2018-01-25T12:35:39Z</time>
      </trkpt>
      <trkpt lat="45.22447" lon="6.02407">
        <ele>1796.4338378906</ele>
        <time>2018-01-25T12:35:52Z</time>
      </trkpt>
      <trkpt lat="45.22453" lon="6.02415">
        <ele>1799.1320800781</ele>
        <time>2018-01-25T12:36:09Z</time>
      </trkpt>
      <trkpt lat="45.22456" lon="6.02414">
        <ele>1800.3092041016</ele>
        <time>2018-01-25T12:36:16Z</time>
      </trkpt>
      <trkpt lat="45.2246" lon="6.02407">
        <ele>1801.7767333984</ele>
        <time>2018-01-25T12:36:28Z</time>
      </trkpt>
      <trkpt lat="45.22466" lon="6.02386">
        <ele>1803.9953613281</ele>
        <time>2018-01-25T12:36:58Z</time>
      </trkpt>
      <trkpt lat="45.2247" lon="6.02375">
        <ele>1805.7331542969</ele>
        <time>2018-01-25T12:37:16Z</time>
      </trkpt>
      <trkpt lat="45.22494" lon="6.0237">
        <ele>1818.888671875</ele>
        <time>2018-01-25T12:38:00Z</time>
      </trkpt>
      <trkpt lat="45.22497" lon="6.0237">
        <ele>1820.7790527344</ele>
        <time>2018-01-25T12:38:34Z</time>
      </trkpt>
      <trkpt lat="45.22515" lon="6.02367">
        <ele>1827.8709716797</ele>
        <time>2018-01-25T12:39:05Z</time>
      </trkpt>
      <trkpt lat="45.22555" lon="6.02401">
        <ele>1840.3546142578</ele>
        <time>2018-01-25T12:40:24Z</time>
      </trkpt>
      <trkpt lat="45.2257" lon="6.02411">
        <ele>1846.498046875</ele>
        <time>2018-01-25T12:41:02Z</time>
      </trkpt>
      <trkpt lat="45.22575" lon="6.02399">
        <ele>1850.4814453125</ele>
        <time>2018-01-25T12:41:19Z</time>
      </trkpt>
      <trkpt lat="45.22575" lon="6.02387">
        <ele>1851.9195556641</ele>
        <time>2018-01-25T12:41:35Z</time>
      </trkpt>
      <trkpt lat="45.22577" lon="6.02372">
        <ele>1855.1605224609</ele>
        <time>2018-01-25T12:41:58Z</time>
      </trkpt>
      <trkpt lat="45.22592" lon="6.02345">
        <ele>1864.8205566406</ele>
        <time>2018-01-25T12:42:45Z</time>
      </trkpt>
      <trkpt lat="45.22596" lon="6.02302">
        <ele>1871.5960693359</ele>
        <time>2018-01-25T12:43:47Z</time>
      </trkpt>
      <trkpt lat="45.226" lon="6.02282">
        <ele>1875.0927734375</ele>
        <time>2018-01-25T12:44:14Z</time>
      </trkpt>
      <trkpt lat="45.22603" lon="6.02278">
        <ele>1876.6719970703</ele>
        <time>2018-01-25T12:44:20Z</time>
      </trkpt>
      <trkpt lat="45.22618" lon="6.02275">
        <ele>1882.6285400391</ele>
        <time>2018-01-25T12:44:44Z</time>
      </trkpt>
      <trkpt lat="45.22628" lon="6.02274">
        <ele>1886.5493164062</ele>
        <time>2018-01-25T12:45:01Z</time>
      </trkpt>
      <trkpt lat="45.2263" lon="6.02272">
        <ele>1887.1241455078</ele>
        <time>2018-01-25T12:45:38Z</time>
      </trkpt>
      <trkpt lat="45.22631" lon="6.02272">
        <ele>1887.6854248047</ele>
        <time>2018-01-25T12:45:46Z</time>
      </trkpt>
      <trkpt lat="45.22642" lon="6.02267">
        <ele>1891.5756835938</ele>
        <time>2018-01-25T12:46:04Z</time>
      </trkpt>
      <trkpt lat="45.22645" lon="6.02259">
        <ele>1893.0529785156</ele>
        <time>2018-01-25T12:46:15Z</time>
      </trkpt>
      <trkpt lat="45.22663" lon="6.02216">
        <ele>1904.3909912109</ele>
        <time>2018-01-25T12:47:22Z</time>
      </trkpt>
      <trkpt lat="45.22669" lon="6.0218">
        <ele>1912.9934082031</ele>
        <time>2018-01-25T12:48:07Z</time>
      </trkpt>
      <trkpt lat="45.22681" lon="6.02194">
        <ele>1918.6424560547</ele>
        <time>2018-01-25T12:48:38Z</time>
      </trkpt>
      <trkpt lat="45.22683" lon="6.02194">
        <ele>1920.1763916016</ele>
        <time>2018-01-25T12:48:51Z</time>
      </trkpt>
      <trkpt lat="45.22691" lon="6.02162">
        <ele>1930.2241210938</ele>
        <time>2018-01-25T12:49:44Z</time>
      </trkpt>
      <trkpt lat="45.22699" lon="6.02177">
        <ele>1932.4499511719</ele>
        <time>2018-01-25T12:50:07Z</time>
      </trkpt>
      <trkpt lat="45.227" lon="6.02178">
        <ele>1932.8698730469</ele>
        <time>2018-01-25T12:50:21Z</time>
      </trkpt>
      <trkpt lat="45.22702" lon="6.02154">
        <ele>1935.8894042969</ele>
        <time>2018-01-25T12:50:55Z</time>
      </trkpt>
      <trkpt lat="45.22711" lon="6.02158">
        <ele>1938.1424560547</ele>
        <time>2018-01-25T12:51:31Z</time>
      </trkpt>
      <trkpt lat="45.22717" lon="6.02128">
        <ele>1941.3646240234</ele>
        <time>2018-01-25T12:52:19Z</time>
      </trkpt>
      <trkpt lat="45.22718" lon="6.02123">
        <ele>1942.4733886719</ele>
        <time>2018-01-25T12:52:35Z</time>
      </trkpt>
      <trkpt lat="45.22741" lon="6.02133">
        <ele>1949.9262695312</ele>
        <time>2018-01-25T12:53:21Z</time>
      </trkpt>
      <trkpt lat="45.22748" lon="6.02146">
        <ele>1953.4304199219</ele>
        <time>2018-01-25T12:53:48Z</time>
      </trkpt>
      <trkpt lat="45.22748" lon="6.02144">
        <ele>1953.1170654297</ele>
        <time>2018-01-25T12:54:02Z</time>
      </trkpt>
      <trkpt lat="45.22754" lon="6.02123">
        <ele>1958.3909912109</ele>
        <time>2018-01-25T12:54:36Z</time>
      </trkpt>
      <trkpt lat="45.22756" lon="6.02118">
        <ele>1960.1546630859</ele>
        <time>2018-01-25T12:54:51Z</time>
      </trkpt>
      <trkpt lat="45.22766" lon="6.02125">
        <ele>1965.3911132812</ele>
        <time>2018-01-25T12:55:19Z</time>
      </trkpt>
      <trkpt lat="45.22768" lon="6.02124">
        <ele>1966.5883789062</ele>
        <time>2018-01-25T12:55:32Z</time>
      </trkpt>
      <trkpt lat="45.22773" lon="6.02114">
        <ele>1970.0328369141</ele>
        <time>2018-01-25T12:55:51Z</time>
      </trkpt>
      <trkpt lat="45.22773" lon="6.0211">
        <ele>1970.8211669922</ele>
        <time>2018-01-25T12:55:57Z</time>
      </trkpt>
      <trkpt lat="45.22774" lon="6.02097">
        <ele>1976.2456054688</ele>
        <time>2018-01-25T12:56:15Z</time>
      </trkpt>
      <trkpt lat="45.22777" lon="6.02097">
        <ele>1977.5206298828</ele>
        <time>2018-01-25T12:56:20Z</time>
      </trkpt>
      <trkpt lat="45.22788" lon="6.02107">
        <ele>1978.5812988281</ele>
        <time>2018-01-25T12:56:44Z</time>
      </trkpt>
      <trkpt lat="45.22788" lon="6.02109">
        <ele>1977.9693603516</ele>
        <time>2018-01-25T12:57:03Z</time>
      </trkpt>
      <trkpt lat="45.22792" lon="6.02108">
        <ele>1979.9536132812</ele>
        <time>2018-01-25T12:57:32Z</time>
      </trkpt>
      <trkpt lat="45.22792" lon="6.02103">
        <ele>1981.6383056641</ele>
        <time>2018-01-25T12:58:06Z</time>
      </trkpt>
      <trkpt lat="45.2279" lon="6.02078">
        <ele>1988.2769775391</ele>
        <time>2018-01-25T12:58:36Z</time>
      </trkpt>
      <trkpt lat="45.22794" lon="6.02066">
        <ele>1992.5616455078</ele>
        <time>2018-01-25T12:58:54Z</time>
      </trkpt>
      <trkpt lat="45.22802" lon="6.0206">
        <ele>1996.5150146484</ele>
        <time>2018-01-25T12:59:10Z</time>
      </trkpt>
      <trkpt lat="45.22804" lon="6.0205">
        <ele>2000.2114257812</ele>
        <time>2018-01-25T12:59:30Z</time>
      </trkpt>
      <trkpt lat="45.2283" lon="6.02032">
        <ele>2009.9296875</ele>
        <time>2018-01-25T13:00:39Z</time>
      </trkpt>
      <trkpt lat="45.22831" lon="6.02029">
        <ele>2011.2940673828</ele>
        <time>2018-01-25T13:00:47Z</time>
      </trkpt>
      <trkpt lat="45.22828" lon="6.02018">
        <ele>2014.7467041016</ele>
        <time>2018-01-25T13:01:05Z</time>
      </trkpt>
      <trkpt lat="45.22823" lon="6.01994">
        <ele>2021.5979003906</ele>
        <time>2018-01-25T13:01:39Z</time>
      </trkpt>
      <trkpt lat="45.22826" lon="6.01966">
        <ele>2029.1552734375</ele>
        <time>2018-01-25T13:02:20Z</time>
      </trkpt>
      <trkpt lat="45.22826" lon="6.01956">
        <ele>2031.2976074219</ele>
        <time>2018-01-25T13:02:32Z</time>
      </trkpt>
      <trkpt lat="45.22815" lon="6.01925">
        <ele>2035.5374755859</ele>
        <time>2018-01-25T13:03:27Z</time>
      </trkpt>
      <trkpt lat="45.22831" lon="6.01919">
        <ele>2040.8446044922</ele>
        <time>2018-01-25T13:04:13Z</time>
      </trkpt>
      <trkpt lat="45.2283" lon="6.01918">
        <ele>2040.7947998047</ele>
        <time>2018-01-25T13:04:23Z</time>
      </trkpt>
      <trkpt lat="45.22817" lon="6.019">
        <ele>2042.4172363281</ele>
        <time>2018-01-25T13:05:01Z</time>
      </trkpt>
      <trkpt lat="45.22817" lon="6.01897">
        <ele>2043.6463623047</ele>
        <time>2018-01-25T13:05:07Z</time>
      </trkpt>
      <trkpt lat="45.22812" lon="6.01846">
        <ele>2059.2824707031</ele>
        <time>2018-01-25T13:06:27Z</time>
      </trkpt>
      <trkpt lat="45.22813" lon="6.01846">
        <ele>2060.0561523438</ele>
        <time>2018-01-25T13:06:38Z</time>
      </trkpt>
      <trkpt lat="45.22816" lon="6.01848">
        <ele>2060.7758789062</ele>
        <time>2018-01-25T13:06:46Z</time>
      </trkpt>
      <trkpt lat="45.22826" lon="6.01856">
        <ele>2063.3681640625</ele>
        <time>2018-01-25T13:07:19Z</time>
      </trkpt>
      <trkpt lat="45.22824" lon="6.01853">
        <ele>2063.4682617188</ele>
        <time>2018-01-25T13:07:35Z</time>
      </trkpt>
      <trkpt lat="45.22809" lon="6.01823">
        <ele>2067.4838867188</ele>
        <time>2018-01-25T13:08:31Z</time>
      </trkpt>
      <trkpt lat="45.22804" lon="6.01813">
        <ele>2069.6354980469</ele>
        <time>2018-01-25T13:08:49Z</time>
      </trkpt>
      <trkpt lat="45.22804" lon="6.01805">
        <ele>2073.6433105469</ele>
        <time>2018-01-25T13:09:01Z</time>
      </trkpt>
      <trkpt lat="45.22803" lon="6.01804">
        <ele>2072.5749511719</ele>
        <time>2018-01-25T13:09:19Z</time>
      </trkpt>
      <trkpt lat="45.2281" lon="6.01799">
        <ele>2076.0944824219</ele>
        <time>2018-01-25T13:11:02Z</time>
      </trkpt>
      <trkpt lat="45.22809" lon="6.01798">
        <ele>2075.2407226562</ele>
        <time>2018-01-25T13:13:06Z</time>
      </trkpt>
      <trkpt lat="45.22804" lon="6.01807">
        <ele>2072.228515625</ele>
        <time>2018-01-25T13:13:54Z</time>
      </trkpt>
      <trkpt lat="45.22804" lon="6.01808">
        <ele>2071.77734375</ele>
        <time>2018-01-25T13:17:37Z</time>
      </trkpt>
      <trkpt lat="45.22803" lon="6.01809">
        <ele>2070.5368652344</ele>
        <time>2018-01-25T13:18:47Z</time>
      </trkpt>
      <trkpt lat="45.22804" lon="6.01809">
        <ele>2071.5651855469</ele>
        <time>2018-01-25T13:19:48Z</time>
      </trkpt>
      <trkpt lat="45.22803" lon="6.0181">
        <ele>2069.9096679688</ele>
        <time>2018-01-25T13:20:48Z</time>
      </trkpt>
      <trkpt lat="45.22804" lon="6.01808">
        <ele>2071.8303222656</ele>
        <time>2018-01-25T13:21:55Z</time>
      </trkpt>
      <trkpt lat="45.22804" lon="6.01809">
        <ele>2071.4060058594</ele>
        <time>2018-01-25T13:23:46Z</time>
      </trkpt>
      <trkpt lat="45.22805" lon="6.01811">
        <ele>2071.6442871094</ele>
        <time>2018-01-25T13:25:46Z</time>
      </trkpt>
      <trkpt lat="45.22805" lon="6.01816">
        <ele>2069.1318359375</ele>
        <time>2018-01-25T13:25:51Z</time>
      </trkpt>
      <trkpt lat="45.22812" lon="6.01829">
        <ele>2065.7861328125</ele>
        <time>2018-01-25T13:25:56Z</time>
      </trkpt>
      <trkpt lat="45.22822" lon="6.01853">
        <ele>2062.3764648438</ele>
        <time>2018-01-25T13:26:06Z</time>
      </trkpt>
      <trkpt lat="45.22823" lon="6.01856">
        <ele>2061.3715820312</ele>
        <time>2018-01-25T13:26:17Z</time>
      </trkpt>
      <trkpt lat="45.22825" lon="6.01864">
        <ele>2058.5161132812</ele>
        <time>2018-01-25T13:26:22Z</time>
      </trkpt>
      <trkpt lat="45.22822" lon="6.01871">
        <ele>2054.6469726562</ele>
        <time>2018-01-25T13:26:27Z</time>
      </trkpt>
      <trkpt lat="45.22815" lon="6.01874">
        <ele>2050.1047363281</ele>
        <time>2018-01-25T13:26:32Z</time>
      </trkpt>
      <trkpt lat="45.22815" lon="6.01885">
        <ele>2045.9436035156</ele>
        <time>2018-01-25T13:26:37Z</time>
      </trkpt>
      <trkpt lat="45.22795" lon="6.01874">
        <ele>2040.1661376953</ele>
        <time>2018-01-25T13:26:47Z</time>
      </trkpt>
      <trkpt lat="45.22789" lon="6.01901">
        <ele>2029.7420654297</ele>
        <time>2018-01-25T13:26:57Z</time>
      </trkpt>
      <trkpt lat="45.22794" lon="6.01912">
        <ele>2029.4526367188</ele>
        <time>2018-01-25T13:27:02Z</time>
      </trkpt>
      <trkpt lat="45.22808" lon="6.01942">
        <ele>2030.8883056641</ele>
        <time>2018-01-25T13:27:12Z</time>
      </trkpt>
      <trkpt lat="45.22814" lon="6.01961">
        <ele>2027.8677978516</ele>
        <time>2018-01-25T13:27:17Z</time>
      </trkpt>
      <trkpt lat="45.22814" lon="6.01976">
        <ele>2024.4079589844</ele>
        <time>2018-01-25T13:27:22Z</time>
      </trkpt>
      <trkpt lat="45.22819" lon="6.01983">
        <ele>2023.5341796875</ele>
        <time>2018-01-25T13:27:28Z</time>
      </trkpt>
      <trkpt lat="45.22819" lon="6.01985">
        <ele>2023.2303466797</ele>
        <time>2018-01-25T13:27:37Z</time>
      </trkpt>
      <trkpt lat="45.22829" lon="6.01999">
        <ele>2021.5515136719</ele>
        <time>2018-01-25T13:27:42Z</time>
      </trkpt>
      <trkpt lat="45.22847" lon="6.02016">
        <ele>2016.6845703125</ele>
        <time>2018-01-25T13:27:47Z</time>
      </trkpt>
      <trkpt lat="45.22858" lon="6.02051">
        <ele>2007.4946289062</ele>
        <time>2018-01-25T13:27:57Z</time>
      </trkpt>
      <trkpt lat="45.22845" lon="6.02061">
        <ele>2001.9539794922</ele>
        <time>2018-01-25T13:28:02Z</time>
      </trkpt>
      <trkpt lat="45.2285" lon="6.02073">
        <ele>2000.5333251953</ele>
        <time>2018-01-25T13:28:07Z</time>
      </trkpt>
      <trkpt lat="45.2285" lon="6.02071">
        <ele>2000.9226074219</ele>
        <time>2018-01-25T13:28:15Z</time>
      </trkpt>
      <trkpt lat="45.2285" lon="6.02077">
        <ele>1999.8515625</ele>
        <time>2018-01-25T13:28:20Z</time>
      </trkpt>
      <trkpt lat="45.22856" lon="6.02105">
        <ele>1996.6883544922</ele>
        <time>2018-01-25T13:28:25Z</time>
      </trkpt>
      <trkpt lat="45.22854" lon="6.02124">
        <ele>1994.9215087891</ele>
        <time>2018-01-25T13:28:30Z</time>
      </trkpt>
      <trkpt lat="45.22856" lon="6.0215">
        <ele>1994.7473144531</ele>
        <time>2018-01-25T13:28:35Z</time>
      </trkpt>
      <trkpt lat="45.22857" lon="6.02211">
        <ele>1990.5062255859</ele>
        <time>2018-01-25T13:28:45Z</time>
      </trkpt>
      <trkpt lat="45.22862" lon="6.02243">
        <ele>1987.1232910156</ele>
        <time>2018-01-25T13:28:50Z</time>
      </trkpt>
      <trkpt lat="45.2286" lon="6.02265">
        <ele>1983.5513916016</ele>
        <time>2018-01-25T13:28:55Z</time>
      </trkpt>
      <trkpt lat="45.2286" lon="6.02274">
        <ele>1982.3659667969</ele>
        <time>2018-01-25T13:29:05Z</time>
      </trkpt>
      <trkpt lat="45.22861" lon="6.02274">
        <ele>1982.6529541016</ele>
        <time>2018-01-25T13:29:12Z</time>
      </trkpt>
      <trkpt lat="45.22863" lon="6.02274">
        <ele>1982.8726806641</ele>
        <time>2018-01-25T13:29:24Z</time>
      </trkpt>
      <trkpt lat="45.22862" lon="6.02276">
        <ele>1982.5705566406</ele>
        <time>2018-01-25T13:29:37Z</time>
      </trkpt>
      <trkpt lat="45.22847" lon="6.02304">
        <ele>1968.0610351562</ele>
        <time>2018-01-25T13:29:47Z</time>
      </trkpt>
      <trkpt lat="45.22836" lon="6.02311">
        <ele>1961.4681396484</ele>
        <time>2018-01-25T13:29:52Z</time>
      </trkpt>
      <trkpt lat="45.22823" lon="6.02338">
        <ele>1951.4161376953</ele>
        <time>2018-01-25T13:30:02Z</time>
      </trkpt>
      <trkpt lat="45.22807" lon="6.02345">
        <ele>1945.5491943359</ele>
        <time>2018-01-25T13:30:07Z</time>
      </trkpt>
      <trkpt lat="45.22798" lon="6.02358">
        <ele>1939.5451660156</ele>
        <time>2018-01-25T13:30:12Z</time>
      </trkpt>
      <trkpt lat="45.22791" lon="6.02381">
        <ele>1933.453125</ele>
        <time>2018-01-25T13:30:17Z</time>
      </trkpt>
      <trkpt lat="45.22785" lon="6.02393">
        <ele>1929.6956787109</ele>
        <time>2018-01-25T13:30:22Z</time>
      </trkpt>
      <trkpt lat="45.2276" lon="6.02406">
        <ele>1917.6519775391</ele>
        <time>2018-01-25T13:30:32Z</time>
      </trkpt>
      <trkpt lat="45.22761" lon="6.02406">
        <ele>1917.9284667969</ele>
        <time>2018-01-25T13:31:03Z</time>
      </trkpt>
      <trkpt lat="45.22761" lon="6.0241">
        <ele>1917.6721191406</ele>
        <time>2018-01-25T13:31:14Z</time>
      </trkpt>
      <trkpt lat="45.22741" lon="6.02408">
        <ele>1909.7327880859</ele>
        <time>2018-01-25T13:31:24Z</time>
      </trkpt>
      <trkpt lat="45.22731" lon="6.02413">
        <ele>1904.9141845703</ele>
        <time>2018-01-25T13:31:29Z</time>
      </trkpt>
      <trkpt lat="45.22718" lon="6.02415">
        <ele>1900.0129394531</ele>
        <time>2018-01-25T13:31:34Z</time>
      </trkpt>
      <trkpt lat="45.22708" lon="6.02427">
        <ele>1894.5159912109</ele>
        <time>2018-01-25T13:31:39Z</time>
      </trkpt>
      <trkpt lat="45.22694" lon="6.0242">
        <ele>1890.9348144531</ele>
        <time>2018-01-25T13:31:44Z</time>
      </trkpt>
      <trkpt lat="45.22686" lon="6.02426">
        <ele>1886.9288330078</ele>
        <time>2018-01-25T13:31:49Z</time>
      </trkpt>
      <trkpt lat="45.22673" lon="6.02428">
        <ele>1882.4722900391</ele>
        <time>2018-01-25T13:31:54Z</time>
      </trkpt>
      <trkpt lat="45.22665" lon="6.0244">
        <ele>1877.7124023438</ele>
        <time>2018-01-25T13:31:59Z</time>
      </trkpt>
      <trkpt lat="45.22653" lon="6.02443">
        <ele>1871.8990478516</ele>
        <time>2018-01-25T13:32:04Z</time>
      </trkpt>
      <trkpt lat="45.2264" lon="6.02446">
        <ele>1865.1586914062</ele>
        <time>2018-01-25T13:32:09Z</time>
      </trkpt>
      <trkpt lat="45.22621" lon="6.02463">
        <ele>1855.5018310547</ele>
        <time>2018-01-25T13:32:19Z</time>
      </trkpt>
      <trkpt lat="45.2261" lon="6.02473">
        <ele>1850.6530761719</ele>
        <time>2018-01-25T13:32:24Z</time>
      </trkpt>
      <trkpt lat="45.22595" lon="6.02479">
        <ele>1846.5369873047</ele>
        <time>2018-01-25T13:32:29Z</time>
      </trkpt>
      <trkpt lat="45.22573" lon="6.02479">
        <ele>1840.8868408203</ele>
        <time>2018-01-25T13:32:34Z</time>
      </trkpt>
      <trkpt lat="45.22572" lon="6.02479">
        <ele>1840.5758056641</ele>
        <time>2018-01-25T13:32:45Z</time>
      </trkpt>
      <trkpt lat="45.2257" lon="6.02478">
        <ele>1840.1623535156</ele>
        <time>2018-01-25T13:32:51Z</time>
      </trkpt>
      <trkpt lat="45.22567" lon="6.02476">
        <ele>1839.4221191406</ele>
        <time>2018-01-25T13:32:57Z</time>
      </trkpt>
      <trkpt lat="45.22562" lon="6.02469">
        <ele>1837.9935302734</ele>
        <time>2018-01-25T13:33:02Z</time>
      </trkpt>
      <trkpt lat="45.22527" lon="6.02419">
        <ele>1826.5692138672</ele>
        <time>2018-01-25T13:33:12Z</time>
      </trkpt>
      <trkpt lat="45.22511" lon="6.02412">
        <ele>1821.5045166016</ele>
        <time>2018-01-25T13:33:17Z</time>
      </trkpt>
      <trkpt lat="45.22497" lon="6.02406">
        <ele>1817.4036865234</ele>
        <time>2018-01-25T13:33:22Z</time>
      </trkpt>
      <trkpt lat="45.22486" lon="6.02388">
        <ele>1814.2445068359</ele>
        <time>2018-01-25T13:33:27Z</time>
      </trkpt>
      <trkpt lat="45.22484" lon="6.02367">
        <ele>1813.5130615234</ele>
        <time>2018-01-25T13:33:32Z</time>
      </trkpt>
      <trkpt lat="45.22469" lon="6.02361">
        <ele>1805.4388427734</ele>
        <time>2018-01-25T13:33:37Z</time>
      </trkpt>
      <trkpt lat="45.22458" lon="6.02362">
        <ele>1799.3024902344</ele>
        <time>2018-01-25T13:33:42Z</time>
      </trkpt>
      <trkpt lat="45.22444" lon="6.02371">
        <ele>1792.4385986328</ele>
        <time>2018-01-25T13:33:47Z</time>
      </trkpt>
      <trkpt lat="45.22429" lon="6.02371">
        <ele>1786.9279785156</ele>
        <time>2018-01-25T13:33:52Z</time>
      </trkpt>
      <trkpt lat="45.22415" lon="6.02362">
        <ele>1780.7944335938</ele>
        <time>2018-01-25T13:33:57Z</time>
      </trkpt>
      <trkpt lat="45.224" lon="6.02349">
        <ele>1776.1474609375</ele>
        <time>2018-01-25T13:34:02Z</time>
      </trkpt>
      <trkpt lat="45.22383" lon="6.02333">
        <ele>1769.7482910156</ele>
        <time>2018-01-25T13:34:07Z</time>
      </trkpt>
      <trkpt lat="45.2238" lon="6.02322">
        <ele>1767.4058837891</ele>
        <time>2018-01-25T13:34:12Z</time>
      </trkpt>
      <trkpt lat="45.2238" lon="6.02319">
        <ele>1767.0393066406</ele>
        <time>2018-01-25T13:34:47Z</time>
      </trkpt>
      <trkpt lat="45.22385" lon="6.02295">
        <ele>1763.4962158203</ele>
        <time>2018-01-25T13:34:52Z</time>
      </trkpt>
      <trkpt lat="45.22384" lon="6.02273">
        <ele>1759.14453125</ele>
        <time>2018-01-25T13:34:57Z</time>
      </trkpt>
      <trkpt lat="45.22374" lon="6.02253">
        <ele>1755.1002197266</ele>
        <time>2018-01-25T13:35:02Z</time>
      </trkpt>
      <trkpt lat="45.22369" lon="6.02231">
        <ele>1749.9248046875</ele>
        <time>2018-01-25T13:35:07Z</time>
      </trkpt>
      <trkpt lat="45.22367" lon="6.02213">
        <ele>1745.4656982422</ele>
        <time>2018-01-25T13:35:12Z</time>
      </trkpt>
      <trkpt lat="45.22358" lon="6.02186">
        <ele>1739.296875</ele>
        <time>2018-01-25T13:35:17Z</time>
      </trkpt>
      <trkpt lat="45.22337" lon="6.02174">
        <ele>1737.2933349609</ele>
        <time>2018-01-25T13:35:22Z</time>
      </trkpt>
      <trkpt lat="45.22302" lon="6.02129">
        <ele>1726.4968261719</ele>
        <time>2018-01-25T13:35:32Z</time>
      </trkpt>
      <trkpt lat="45.22292" lon="6.0211">
        <ele>1721.3732910156</ele>
        <time>2018-01-25T13:35:37Z</time>
      </trkpt>
      <trkpt lat="45.22277" lon="6.02091">
        <ele>1716.3297119141</ele>
        <time>2018-01-25T13:35:42Z</time>
      </trkpt>
      <trkpt lat="45.22251" lon="6.02051">
        <ele>1707.2214355469</ele>
        <time>2018-01-25T13:35:52Z</time>
      </trkpt>
      <trkpt lat="45.22244" lon="6.02025">
        <ele>1702.3685302734</ele>
        <time>2018-01-25T13:35:57Z</time>
      </trkpt>
      <trkpt lat="45.22246" lon="6.02006">
        <ele>1699.3725585938</ele>
        <time>2018-01-25T13:36:02Z</time>
      </trkpt>
      <trkpt lat="45.22255" lon="6.01985">
        <ele>1697.3638916016</ele>
        <time>2018-01-25T13:36:07Z</time>
      </trkpt>
      <trkpt lat="45.22257" lon="6.01955">
        <ele>1693.9143066406</ele>
        <time>2018-01-25T13:36:12Z</time>
      </trkpt>
      <trkpt lat="45.22256" lon="6.01934">
        <ele>1691.8852539062</ele>
        <time>2018-01-25T13:36:17Z</time>
      </trkpt>
      <trkpt lat="45.22248" lon="6.01862">
        <ele>1682.4982910156</ele>
        <time>2018-01-25T13:36:27Z</time>
      </trkpt>
      <trkpt lat="45.22253" lon="6.01831">
        <ele>1680.1311035156</ele>
        <time>2018-01-25T13:36:32Z</time>
      </trkpt>
      <trkpt lat="45.22261" lon="6.01821">
        <ele>1680.2237548828</ele>
        <time>2018-01-25T13:36:39Z</time>
      </trkpt>
      <trkpt lat="45.22261" lon="6.01823">
        <ele>1680.4434814453</ele>
        <time>2018-01-25T13:37:05Z</time>
      </trkpt>
      <trkpt lat="45.22265" lon="6.01821">
        <ele>1680.7764892578</ele>
        <time>2018-01-25T13:37:18Z</time>
      </trkpt>
      <trkpt lat="45.2228" lon="6.01792">
        <ele>1681.1071777344</ele>
        <time>2018-01-25T13:37:23Z</time>
      </trkpt>
      <trkpt lat="45.2228" lon="6.01758">
        <ele>1678.5992431641</ele>
        <time>2018-01-25T13:37:28Z</time>
      </trkpt>
      <trkpt lat="45.22258" lon="6.01632">
        <ele>1663.6383056641</ele>
        <time>2018-01-25T13:37:48Z</time>
      </trkpt>
      <trkpt lat="45.22258" lon="6.01617">
        <ele>1664.7026367188</ele>
        <time>2018-01-25T13:37:53Z</time>
      </trkpt>
      <trkpt lat="45.22259" lon="6.01614">
        <ele>1665.1866455078</ele>
        <time>2018-01-25T13:38:04Z</time>
      </trkpt>
      <trkpt lat="45.22259" lon="6.01601">
        <ele>1666.4431152344</ele>
        <time>2018-01-25T13:38:09Z</time>
      </trkpt>
      <trkpt lat="45.22251" lon="6.01539">
        <ele>1666.7885742188</ele>
        <time>2018-01-25T13:38:29Z</time>
      </trkpt>
      <trkpt lat="45.22248" lon="6.01526">
        <ele>1666.2303466797</ele>
        <time>2018-01-25T13:38:34Z</time>
      </trkpt>
      <trkpt lat="45.22241" lon="6.01498">
        <ele>1666.2869873047</ele>
        <time>2018-01-25T13:38:44Z</time>
      </trkpt>
      <trkpt lat="45.22236" lon="6.01461">
        <ele>1667.671875</ele>
        <time>2018-01-25T13:38:54Z</time>
      </trkpt>
      <trkpt lat="45.22224" lon="6.01424">
        <ele>1663.5565185547</ele>
        <time>2018-01-25T13:39:06Z</time>
      </trkpt>
      <trkpt lat="45.22223" lon="6.01422">
        <ele>1663.3337402344</ele>
        <time>2018-01-25T13:39:36Z</time>
      </trkpt>
      <trkpt lat="45.22227" lon="6.01414">
        <ele>1663.4677734375</ele>
        <time>2018-01-25T13:39:41Z</time>
      </trkpt>
      <trkpt lat="45.22234" lon="6.01389">
        <ele>1661.1674804688</ele>
        <time>2018-01-25T13:39:46Z</time>
      </trkpt>
      <trkpt lat="45.2225" lon="6.01373">
        <ele>1661.7099609375</ele>
        <time>2018-01-25T13:39:51Z</time>
      </trkpt>
      <trkpt lat="45.22271" lon="6.01363">
        <ele>1660.3165283203</ele>
        <time>2018-01-25T13:39:56Z</time>
      </trkpt>
      <trkpt lat="45.22281" lon="6.01311">
        <ele>1647.828125</ele>
        <time>2018-01-25T13:40:06Z</time>
      </trkpt>
      <trkpt lat="45.22271" lon="6.013">
        <ele>1644.4665527344</ele>
        <time>2018-01-25T13:40:11Z</time>
      </trkpt>
      <trkpt lat="45.22247" lon="6.0131">
        <ele>1644.8348388672</ele>
        <time>2018-01-25T13:40:16Z</time>
      </trkpt>
      <trkpt lat="45.2223" lon="6.01298">
        <ele>1641.3718261719</ele>
        <time>2018-01-25T13:40:21Z</time>
      </trkpt>
      <trkpt lat="45.22224" lon="6.01272">
        <ele>1634.7990722656</ele>
        <time>2018-01-25T13:40:26Z</time>
      </trkpt>
      <trkpt lat="45.22232" lon="6.01253">
        <ele>1630.9562988281</ele>
        <time>2018-01-25T13:40:31Z</time>
      </trkpt>
      <trkpt lat="45.22241" lon="6.01229">
        <ele>1624.2791748047</ele>
        <time>2018-01-25T13:40:36Z</time>
      </trkpt>
      <trkpt lat="45.22238" lon="6.01202">
        <ele>1618.7281494141</ele>
        <time>2018-01-25T13:40:46Z</time>
      </trkpt>
      <trkpt lat="45.22245" lon="6.0117">
        <ele>1613.8707275391</ele>
        <time>2018-01-25T13:40:51Z</time>
      </trkpt>
      <trkpt lat="45.22245" lon="6.01151">
        <ele>1611.6856689453</ele>
        <time>2018-01-25T13:40:56Z</time>
      </trkpt>
      <trkpt lat="45.22238" lon="6.01129">
        <ele>1609.2725830078</ele>
        <time>2018-01-25T13:41:01Z</time>
      </trkpt>
      <trkpt lat="45.2224" lon="6.01128">
        <ele>1608.9610595703</ele>
        <time>2018-01-25T13:41:14Z</time>
      </trkpt>
      <trkpt lat="45.2224" lon="6.01126">
        <ele>1608.6749267578</ele>
        <time>2018-01-25T13:41:33Z</time>
      </trkpt>
      <trkpt lat="45.22234" lon="6.01073">
        <ele>1601.9747314453</ele>
        <time>2018-01-25T13:41:43Z</time>
      </trkpt>
      <trkpt lat="45.22237" lon="6.01012">
        <ele>1592.6632080078</ele>
        <time>2018-01-25T13:41:53Z</time>
      </trkpt>
      <trkpt lat="45.22246" lon="6.00983">
        <ele>1583.6802978516</ele>
        <time>2018-01-25T13:41:58Z</time>
      </trkpt>
      <trkpt lat="45.22252" lon="6.0096">
        <ele>1577.3902587891</ele>
        <time>2018-01-25T13:42:03Z</time>
      </trkpt>
      <trkpt lat="45.22257" lon="6.00944">
        <ele>1574.2944335938</ele>
        <time>2018-01-25T13:42:08Z</time>
      </trkpt>
      <trkpt lat="45.22266" lon="6.00932">
        <ele>1571.96875</ele>
        <time>2018-01-25T13:42:13Z</time>
      </trkpt>
      <trkpt lat="45.22278" lon="6.00923">
        <ele>1571.3890380859</ele>
        <time>2018-01-25T13:42:18Z</time>
      </trkpt>
      <trkpt lat="45.2228" lon="6.00913">
        <ele>1569.9173583984</ele>
        <time>2018-01-25T13:42:23Z</time>
      </trkpt>
      <trkpt lat="45.22274" lon="6.00899">
        <ele>1565.4468994141</ele>
        <time>2018-01-25T13:42:28Z</time>
      </trkpt>
      <trkpt lat="45.22267" lon="6.00878">
        <ele>1560.0695800781</ele>
        <time>2018-01-25T13:42:33Z</time>
      </trkpt>
      <trkpt lat="45.22262" lon="6.00875">
        <ele>1558.375</ele>
        <time>2018-01-25T13:42:44Z</time>
      </trkpt>
      <trkpt lat="45.22256" lon="6.00861">
        <ele>1554.3103027344</ele>
        <time>2018-01-25T13:42:49Z</time>
      </trkpt>
      <trkpt lat="45.2225" lon="6.00839">
        <ele>1548.3741455078</ele>
        <time>2018-01-25T13:42:54Z</time>
      </trkpt>
      <trkpt lat="45.22249" lon="6.00803">
        <ele>1540.494140625</ele>
        <time>2018-01-25T13:43:04Z</time>
      </trkpt>
      <trkpt lat="45.22247" lon="6.008">
        <ele>1540.3159179688</ele>
        <time>2018-01-25T13:43:30Z</time>
      </trkpt>
      <trkpt lat="45.22231" lon="6.00807">
        <ele>1546.166015625</ele>
        <time>2018-01-25T13:43:40Z</time>
      </trkpt>
      <trkpt lat="45.22218" lon="6.00806">
        <ele>1550.5389404297</ele>
        <time>2018-01-25T13:43:51Z</time>
      </trkpt>
      <trkpt lat="45.22205" lon="6.00792">
        <ele>1554.3970947266</ele>
        <time>2018-01-25T13:44:02Z</time>
      </trkpt>
      <trkpt lat="45.22203" lon="6.0077">
        <ele>1550.0279541016</ele>
        <time>2018-01-25T13:44:07Z</time>
      </trkpt>
      <trkpt lat="45.22215" lon="6.00755">
        <ele>1538.9061279297</ele>
        <time>2018-01-25T13:44:12Z</time>
      </trkpt>
      <trkpt lat="45.22212" lon="6.00727">
        <ele>1535.53515625</ele>
        <time>2018-01-25T13:44:18Z</time>
      </trkpt>
      <trkpt lat="45.22215" lon="6.00706">
        <ele>1528.4580078125</ele>
        <time>2018-01-25T13:44:23Z</time>
      </trkpt>
      <trkpt lat="45.22212" lon="6.00686">
        <ele>1527.6588134766</ele>
        <time>2018-01-25T13:44:28Z</time>
      </trkpt>
      <trkpt lat="45.22209" lon="6.0067">
        <ele>1528.2261962891</ele>
        <time>2018-01-25T13:44:34Z</time>
      </trkpt>
      <trkpt lat="45.22208" lon="6.0066">
        <ele>1527.4838867188</ele>
        <time>2018-01-25T13:44:39Z</time>
      </trkpt>
      <trkpt lat="45.22212" lon="6.00639">
        <ele>1520.2764892578</ele>
        <time>2018-01-25T13:44:45Z</time>
      </trkpt>
      <trkpt lat="45.22225" lon="6.00625">
        <ele>1510.3852539062</ele>
        <time>2018-01-25T13:44:50Z</time>
      </trkpt>
      <trkpt lat="45.22234" lon="6.0061">
        <ele>1506.251953125</ele>
        <time>2018-01-25T13:44:55Z</time>
      </trkpt>
      <trkpt lat="45.22234" lon="6.00606">
        <ele>1505.6840820312</ele>
        <time>2018-01-25T13:45:15Z</time>
      </trkpt>
      <trkpt lat="45.22232" lon="6.00602">
        <ele>1505.3620605469</ele>
        <time>2018-01-25T13:45:24Z</time>
      </trkpt>
      <trkpt lat="45.22231" lon="6.00601">
        <ele>1505.4370117188</ele>
        <time>2018-01-25T13:45:30Z</time>
      </trkpt>
      <trkpt lat="45.2223" lon="6.00605">
        <ele>1506.4616699219</ele>
        <time>2018-01-25T13:45:48Z</time>
      </trkpt>
      <trkpt lat="45.22224" lon="6.00587">
        <ele>1504.9390869141</ele>
        <time>2018-01-25T13:45:53Z</time>
      </trkpt>
      <trkpt lat="45.22228" lon="6.00564">
        <ele>1499.6376953125</ele>
        <time>2018-01-25T13:45:58Z</time>
      </trkpt>
      <trkpt lat="45.22229" lon="6.00543">
        <ele>1495.1510009766</ele>
        <time>2018-01-25T13:46:03Z</time>
      </trkpt>
      <trkpt lat="45.22226" lon="6.00524">
        <ele>1493.6832275391</ele>
        <time>2018-01-25T13:46:08Z</time>
      </trkpt>
      <trkpt lat="45.22223" lon="6.00502">
        <ele>1490.8627929688</ele>
        <time>2018-01-25T13:46:13Z</time>
      </trkpt>
      <trkpt lat="45.22234" lon="6.00478">
        <ele>1481.1193847656</ele>
        <time>2018-01-25T13:46:19Z</time>
      </trkpt>
      <trkpt lat="45.2224" lon="6.00458">
        <ele>1474.115234375</ele>
        <time>2018-01-25T13:46:24Z</time>
      </trkpt>
      <trkpt lat="45.22254" lon="6.00432">
        <ele>1463.7794189453</ele>
        <time>2018-01-25T13:46:30Z</time>
      </trkpt>
      <trkpt lat="45.2227" lon="6.00426">
        <ele>1458.4183349609</ele>
        <time>2018-01-25T13:46:35Z</time>
      </trkpt>
      <trkpt lat="45.22282" lon="6.00406">
        <ele>1449.9288330078</ele>
        <time>2018-01-25T13:46:40Z</time>
      </trkpt>
      <trkpt lat="45.22298" lon="6.0039">
        <ele>1441.3032226562</ele>
        <time>2018-01-25T13:46:45Z</time>
      </trkpt>
      <trkpt lat="45.22325" lon="6.00369">
        <ele>1435.1719970703</ele>
        <time>2018-01-25T13:46:51Z</time>
      </trkpt>
      <trkpt lat="45.22318" lon="6.00277">
        <ele>1420.7835693359</ele>
        <time>2018-01-25T13:47:01Z</time>
      </trkpt>
      <trkpt lat="45.22312" lon="6.00256">
        <ele>1417.6298828125</ele>
        <time>2018-01-25T13:47:24Z</time>
      </trkpt>
      <trkpt lat="45.22316" lon="6.00259">
        <ele>1418.0065917969</ele>
        <time>2018-01-25T13:47:44Z</time>
      </trkpt>
      <trkpt lat="45.22313" lon="6.00258">
        <ele>1417.8941650391</ele>
        <time>2018-01-25T13:47:59Z</time>
      </trkpt>
      <trkpt lat="45.22313" lon="6.00257">
        <ele>1417.7224121094</ele>
        <time>2018-01-25T13:48:08Z</time>
      </trkpt>
      <trkpt lat="45.22309" lon="6.00255">
        <ele>1417.505859375</ele>
        <time>2018-01-25T13:48:14Z</time>
      </trkpt>
      <trkpt lat="45.22303" lon="6.00237">
        <ele>1416.3850097656</ele>
        <time>2018-01-25T13:48:19Z</time>
      </trkpt>
      <trkpt lat="45.22309" lon="6.00208">
        <ele>1412.7393798828</ele>
        <time>2018-01-25T13:48:25Z</time>
      </trkpt>
      <trkpt lat="45.22334" lon="6.0019">
        <ele>1403.2136230469</ele>
        <time>2018-01-25T13:48:30Z</time>
      </trkpt>
      <trkpt lat="45.22353" lon="6.00162">
        <ele>1397.1937255859</ele>
        <time>2018-01-25T13:48:35Z</time>
      </trkpt>
      <trkpt lat="45.22375" lon="6.00142">
        <ele>1394.3052978516</ele>
        <time>2018-01-25T13:48:40Z</time>
      </trkpt>
      <trkpt lat="45.22407" lon="6.00131">
        <ele>1393.4783935547</ele>
        <time>2018-01-25T13:48:45Z</time>
      </trkpt>
      <trkpt lat="45.22435" lon="6.0011">
        <ele>1392.1970214844</ele>
        <time>2018-01-25T13:48:50Z</time>
      </trkpt>
      <trkpt lat="45.22458" lon="6.00077">
        <ele>1390.2579345703</ele>
        <time>2018-01-25T13:48:55Z</time>
      </trkpt>
      <trkpt lat="45.22493" lon="6.00012">
        <ele>1384.3006591797</ele>
        <time>2018-01-25T13:49:06Z</time>
      </trkpt>
      <trkpt lat="45.22507" lon="5.9994">
        <ele>1368.2639160156</ele>
        <time>2018-01-25T13:49:16Z</time>
      </trkpt>
      <trkpt lat="45.22508" lon="5.99875">
        <ele>1354.7001953125</ele>
        <time>2018-01-25T13:49:26Z</time>
      </trkpt>
      <trkpt lat="45.22514" lon="5.99836">
        <ele>1350.5657958984</ele>
        <time>2018-01-25T13:49:31Z</time>
      </trkpt>
      <trkpt lat="45.22525" lon="5.99802">
        <ele>1349.1735839844</ele>
        <time>2018-01-25T13:49:36Z</time>
      </trkpt>
      <trkpt lat="45.22528" lon="5.99768">
        <ele>1344.6375732422</ele>
        <time>2018-01-25T13:49:41Z</time>
      </trkpt>
      <trkpt lat="45.2252" lon="5.99797">
        <ele>1346.1301269531</ele>
        <time>2018-01-25T13:49:46Z</time>
      </trkpt>
      <trkpt lat="45.22504" lon="5.99832">
        <ele>1345.5944824219</ele>
        <time>2018-01-25T13:49:51Z</time>
      </trkpt>
      <trkpt lat="45.22475" lon="5.9988">
        <ele>1341.3308105469</ele>
        <time>2018-01-25T13:50:01Z</time>
      </trkpt>
      <trkpt lat="45.22466" lon="5.99888">
        <ele>1340.0612792969</ele>
        <time>2018-01-25T13:50:06Z</time>
      </trkpt>
      <trkpt lat="45.22453" lon="5.9988">
        <ele>1334.6812744141</ele>
        <time>2018-01-25T13:50:11Z</time>
      </trkpt>
      <trkpt lat="45.22446" lon="5.99856">
        <ele>1328.2913818359</ele>
        <time>2018-01-25T13:50:16Z</time>
      </trkpt>
      <trkpt lat="45.22458" lon="5.99837">
        <ele>1326.8299560547</ele>
        <time>2018-01-25T13:50:21Z</time>
      </trkpt>
      <trkpt lat="45.22496" lon="5.99817">
        <ele>1338.5822753906</ele>
        <time>2018-01-25T13:50:31Z</time>
      </trkpt>
      <trkpt lat="45.22501" lon="5.99798">
        <ele>1338.1049804688</ele>
        <time>2018-01-25T13:50:36Z</time>
      </trkpt>
      <trkpt lat="45.22503" lon="5.99779">
        <ele>1335.634765625</ele>
        <time>2018-01-25T13:50:41Z</time>
      </trkpt>
      <trkpt lat="45.225" lon="5.9975">
        <ele>1328.8602294922</ele>
        <time>2018-01-25T13:50:46Z</time>
      </trkpt>
      <trkpt lat="45.22499" lon="5.99716">
        <ele>1322.4754638672</ele>
        <time>2018-01-25T13:50:51Z</time>
      </trkpt>
      <trkpt lat="45.22506" lon="5.99683">
        <ele>1319.544921875</ele>
        <time>2018-01-25T13:50:56Z</time>
      </trkpt>
      <trkpt lat="45.22506" lon="5.99607">
        <ele>1305.9163818359</ele>
        <time>2018-01-25T13:51:06Z</time>
      </trkpt>
      <trkpt lat="45.22504" lon="5.99595">
        <ele>1303.0822753906</ele>
        <time>2018-01-25T13:51:11Z</time>
      </trkpt>
      <trkpt lat="45.22505" lon="5.99592">
        <ele>1302.8985595703</ele>
        <time>2018-01-25T13:51:16Z</time>
      </trkpt>
      <trkpt lat="45.22514" lon="5.99587">
        <ele>1305.9832763672</ele>
        <time>2018-01-25T13:51:32Z</time>
      </trkpt>
      <trkpt lat="45.22514" lon="5.99573">
        <ele>1303.8065185547</ele>
        <time>2018-01-25T13:51:43Z</time>
      </trkpt>
      <trkpt lat="45.22519" lon="5.99569">
        <ele>1305.7210693359</ele>
        <time>2018-01-25T13:51:56Z</time>
      </trkpt>
      <trkpt lat="45.22536" lon="5.99537">
        <ele>1306.3198242188</ele>
        <time>2018-01-25T13:52:11Z</time>
      </trkpt>
      <trkpt lat="45.2254" lon="5.99531">
        <ele>1306.1743164062</ele>
        <time>2018-01-25T13:52:23Z</time>
      </trkpt>
      <trkpt lat="45.22545" lon="5.99528">
        <ele>1307.0087890625</ele>
        <time>2018-01-25T13:52:37Z</time>
      </trkpt>
      <trkpt lat="45.22578" lon="5.99502">
        <ele>1306.8447265625</ele>
        <time>2018-01-25T13:52:53Z</time>
      </trkpt>
      <trkpt lat="45.22612" lon="5.9948">
        <ele>1310.6997070312</ele>
        <time>2018-01-25T13:52:58Z</time>
      </trkpt>
      <trkpt lat="45.22623" lon="5.99455">
        <ele>1307.2272949219</ele>
        <time>2018-01-25T13:53:03Z</time>
      </trkpt>
      <trkpt lat="45.22638" lon="5.99432">
        <ele>1304.7189941406</ele>
        <time>2018-01-25T13:53:08Z</time>
      </trkpt>
      <trkpt lat="45.22662" lon="5.99419">
        <ele>1303.3687744141</ele>
        <time>2018-01-25T13:53:13Z</time>
      </trkpt>
      <trkpt lat="45.22692" lon="5.99398">
        <ele>1295.7628173828</ele>
        <time>2018-01-25T13:53:19Z</time>
      </trkpt>
      <trkpt lat="45.2271" lon="5.99385">
        <ele>1291.3876953125</ele>
        <time>2018-01-25T13:53:24Z</time>
      </trkpt>
      <trkpt lat="45.22728" lon="5.99369">
        <ele>1286.3439941406</ele>
        <time>2018-01-25T13:53:29Z</time>
      </trkpt>
      <trkpt lat="45.2275" lon="5.99347">
        <ele>1280.1212158203</ele>
        <time>2018-01-25T13:53:39Z</time>
      </trkpt>
      <trkpt lat="45.22755" lon="5.99341">
        <ele>1279.0157470703</ele>
        <time>2018-01-25T13:53:47Z</time>
      </trkpt>
      <trkpt lat="45.22755" lon="5.99343">
        <ele>1279.8806152344</ele>
        <time>2018-01-25T13:54:04Z</time>
      </trkpt>
      <trkpt lat="45.22757" lon="5.99344">
        <ele>1281.0446777344</ele>
        <time>2018-01-25T13:54:11Z</time>
      </trkpt>
      <trkpt lat="45.22752" lon="5.99339">
        <ele>1276.9039306641</ele>
        <time>2018-01-25T13:55:19Z</time>
      </trkpt>
    </trkseg>
  </trk>
</gpx>